M I D A S
Marine Information and Data Acquisition System
Tripno 428 of the Zeeleeuw from 2003-02-11 07:32:15 to 2003-02-11 15:22:51
Back to CruiseResearch ActivitiesStationsMapUnderway DataData graphs

EquipmentUnitsComment
TimeDGPSUTC
LatitudeDGPSDM.mWGS84
LongitudeDGPSDM.mWGS84
TemperatureSBE03/SBE38deg celciusITS90
ConductivitySBE21S/mITS90
SalinitySBE21 Practical Salinity Units
ChlorophylAChelsea fluorimeterg/lCalibrated in Aceton
Missing or incorrect values are displayed as -999
Sea surface data collected by the RV Zeeleeuw from 2003-02-11 07:32:15 to 2003-02-11 15:22:51
                                                                                    Next 1000 lines
Time Latitude Longitude Temperature Conductivity Salinity ChlorophylA
2003-02-11 07:32:25 51°13.605 2°56.077 11.148001 0.450229 2.80476 -0.814958
2003-02-11 07:32:29 51°13.607 2°56.072 11.133942 0.452837 2.819302 -0.814958
2003-02-11 07:32:34 51°13.609 2°56.065 11.135786 0.452315 2.813888 -0.848668
2003-02-11 07:32:39 51°13.611 2°56.058 11.133067 0.451689 2.809208 -0.814958
2003-02-11 07:32:44 51°13.613 2°56.051 11.137354 0.451168 2.805561 -0.814958
2003-02-11 07:32:49 51°13.616 2°56.043 11.135556 0.450229 2.801004 -0.848668
2003-02-11 07:32:55 51°13.619 2°56.032 11.135556 0.450229 2.801004 -0.848668
2003-02-11 07:32:59 51°13.621 2°56.025 11.133896 0.449708 2.798768 -0.848668
2003-02-11 07:33:05 51°13.624 2°56.014 11.134818 0.449186 2.795557 -0.814958
2003-02-11 07:33:09 51°13.626 2°56.007 11.134219 0.448873 2.792125 -0.814958
2003-02-11 07:33:15 51°13.629 2°55.995 11.126244 0.448664 2.78958 -0.814958
2003-02-11 07:33:19 51°13.631 2°55.988 11.129102 0.448247 2.786723 -0.814958
2003-02-11 07:33:25 51°13.635 2°55.976 11.129102 0.448247 2.786723 -0.814958
2003-02-11 07:33:29 51°13.637 2°55.968 11.129471 0.448039 2.785778 -0.848668
2003-02-11 07:33:35 51°13.641 2°55.956 11.12841 0.447726 2.784047 -0.848668
2003-02-11 07:33:39 51°13.644 2°55.948 11.128918 0.447517 2.78315 -0.814958
2003-02-11 07:33:44 51°13.647 2°55.937 11.126105 0.447517 2.783586 -0.814958
2003-02-11 07:33:49 51°13.65 2°55.927 11.125183 0.4471 2.781115 -0.781249
2003-02-11 07:33:54 51°13.654 2°55.916 11.125183 0.4471 2.781115 -0.781249
2003-02-11 07:33:59 51°13.657 2°55.906 11.118821 0.446996 2.780473 -0.848668
2003-02-11 07:34:05 51°13.661 2°55.893 11.11776 0.446891 2.779831 -0.781249
2003-02-11 07:34:09 51°13.664 2°55.885 11.123708 0.446787 2.778899 -0.848668
2003-02-11 07:34:14 51°13.667 2°55.875 11.125368 0.446787 2.778802 -0.848668
2003-02-11 07:34:19 51°13.67 2°55.864 11.115962 0.446787 2.77856 -0.848668
2003-02-11 07:34:25 51°13.674 2°55.852 11.115962 0.446787 2.77856 -0.848668
2003-02-11 07:34:29 51°13.677 2°55.844 11.123662 0.446683 2.777629 -0.814958
2003-02-11 07:34:35 51°13.68 2°55.832 11.126013 0.446787 2.77827 -0.814958
2003-02-11 07:34:39 51°13.683 2°55.823 11.128871 0.446474 2.776297 -0.814958
2003-02-11 07:34:44 51°13.686 2°55.813 11.125829 0.446578 2.776938 -0.848668
2003-02-11 07:34:49 51°13.688 2°55.803 11.130669 0.446474 2.776393 -0.814958
2003-02-11 07:34:54 51°13.691 2°55.793 11.130669 0.446474 2.776393 -0.814958
2003-02-11 07:34:59 51°13.694 2°55.784 11.129793 0.44637 2.775799 -0.848668
2003-02-11 07:35:04 51°13.696 2°55.774 11.130439 0.44637 2.775896 -0.848668
2003-02-11 07:35:09 51°13.698 2°55.765 11.131269 0.446266 2.775254 -0.848668
2003-02-11 07:35:14 51°13.7 2°55.756 11.128272 0.44637 2.775944 -0.848668
2003-02-11 07:35:19 51°13.702 2°55.748 11.128825 0.44637 2.775848 -0.814958
2003-02-11 07:35:24 51°13.704 2°55.741 11.128825 0.44637 2.775848 -0.814958
2003-02-11 07:35:29 51°13.704 2°55.735 11.129056 0.446474 2.776393 -0.814958
2003-02-11 07:35:34 51°13.706 2°55.731 11.127212 0.44637 2.775799 -0.814958
2003-02-11 07:35:39 51°13.706 2°55.729 11.113426 0.446266 2.775109 -0.814958
2003-02-11 07:35:45 51°13.707 2°55.727 11.115178 0.44637 2.775799 -0.882377
2003-02-11 07:35:49 51°13.707 2°55.727 11.111074 0.44637 2.775848 -0.848668
2003-02-11 07:35:54 51°13.709 2°55.728 11.111074 0.44637 2.775848 -0.848668
2003-02-11 07:35:59 51°13.709 2°55.729 11.115455 0.44637 2.775848 -0.848668
2003-02-11 07:36:05 51°13.711 2°55.731 11.114302 0.44637 2.775896 -0.882377
2003-02-11 07:36:09 51°13.712 2°55.733 11.132421 0.44637 2.775993 -0.814958
2003-02-11 07:36:13 51°13.713 2°55.734 11.141779 0.44637 2.776572 -0.814958
2003-02-11 07:36:19 51°13.715 2°55.735 11.142378 0.446266 2.776123 -0.814958
2003-02-11 07:36:25 51°13.716 2°55.736 11.142378 0.446266 2.776123 -0.814958
2003-02-11 07:36:29 51°13.717 2°55.736 11.14247 0.446161 2.775578 -0.814958
2003-02-11 07:36:34 51°13.717 2°55.735 11.14436 0.446266 2.776461 -0.814958
2003-02-11 07:36:38 51°13.717 2°55.734 11.141548 0.446057 2.775225 -0.848668
2003-02-11 07:36:43 51°13.717 2°55.732 11.11089 0.446266 2.776848 -0.848668
2003-02-11 07:36:48 51°13.716 2°55.731 11.124169 0.445848 2.774568 -0.848668
2003-02-11 07:36:52 51°13.716 2°55.729 11.124169 0.445848 2.774568 -0.848668
2003-02-11 07:36:59 51°13.714 2°55.726 11.12652 0.446057 2.775805 -0.848668
2003-02-11 07:37:04 51°13.712 2°55.724 11.116331 0.446161 2.776302 -0.781249
2003-02-11 07:37:09 51°13.711 2°55.722 11.123201 0.445953 2.774679 -0.848668
2003-02-11 07:37:15 51°13.71 2°55.72 11.12652 0.446161 2.775771 -0.848668
2003-02-11 07:37:19 51°13.709 2°55.719 11.125414 0.446057 2.775129 -0.848668
2003-02-11 07:37:25 51°13.709 2°55.718 11.125414 0.446057 2.775129 -0.848668
2003-02-11 07:37:29 51°13.709 2°55.717 11.120481 0.446057 2.77508 -0.814958
2003-02-11 07:37:34 51°13.709 2°55.716 11.119697 0.446266 2.776461 -0.848668
2003-02-11 07:37:39 51°13.71 2°55.716 11.116976 0.446161 2.775674 -0.814958
2003-02-11 07:37:45 51°13.711 2°55.716 11.119097 0.446161 2.775529 -0.814958
2003-02-11 07:37:49 51°13.712 2°55.715 11.117253 0.446266 2.776171 -0.848668
2003-02-11 07:37:55 51°13.714 2°55.714 11.117253 0.446266 2.776171 -0.848668
2003-02-11 07:37:59 51°13.716 2°55.713 11.115962 0.446161 2.775578 -0.848668
2003-02-11 07:38:05 51°13.719 2°55.711 11.117253 0.446161 2.775722 -0.848668
2003-02-11 07:38:09 51°13.721 2°55.71 11.120481 0.446161 2.776061 -0.814958
2003-02-11 07:38:15 51°13.724 2°55.707 11.125368 0.446057 2.775612 -0.814958
2003-02-11 07:38:19 51°13.727 2°55.706 11.125967 0.446266 2.777138 -0.814958
2003-02-11 07:38:24 51°13.73 2°55.703 11.125967 0.446266 2.777138 -0.814958
2003-02-11 07:38:29 51°13.734 2°55.7 11.123708 0.446161 2.776544 -0.814958
2003-02-11 07:38:34 51°13.738 2°55.698 11.116884 0.446057 2.775853 -0.848668
2003-02-11 07:38:39 51°13.742 2°55.695 11.107108 0.446161 2.776544 -0.814958
2003-02-11 07:38:44 51°13.747 2°55.692 11.112642 0.446057 2.775708 -0.848668
2003-02-11 07:38:49 51°13.751 2°55.688 11.113795 0.446057 2.775756 -0.814958
2003-02-11 07:38:52 51°13.754 2°55.686 11.113795 0.446057 2.775756 -0.814958
2003-02-11 07:38:59 51°13.761 2°55.681 11.103004 0.446161 2.776399 -0.848668
2003-02-11 07:39:04 51°13.766 2°55.677 11.107523 0.446057 2.775805 -0.848668
2003-02-11 07:39:09 51°13.771 2°55.673 11.112135 0.445953 2.775259 -0.848668
2003-02-11 07:39:14 51°13.777 2°55.669 11.106186 0.446161 2.776882 -0.848668
2003-02-11 07:39:18 51°13.782 2°55.666 11.110336 0.446057 2.776336 -0.781249
2003-02-11 07:39:24 51°13.789 2°55.66 11.110336 0.446057 2.776336 -0.781249
2003-02-11 07:39:28 51°13.794 2°55.656 11.111627 0.446161 2.777172 -0.814958
2003-02-11 07:39:34 51°13.803 2°55.651 11.11338 0.446057 2.776771 -0.848668
2003-02-11 07:39:39 51°13.81 2°55.646 11.114579 0.446057 2.776916 -0.814958
2003-02-11 07:39:44 51°13.817 2°55.641 11.115178 0.445953 2.776612 -0.848668
2003-02-11 07:39:49 51°13.824 2°55.636 11.115501 0.445953 2.776709 -0.814958
2003-02-11 07:39:53 51°13.83 2°55.631 11.115501 0.445953 2.776709 -0.814958
2003-02-11 07:39:59 51°13.839 2°55.625 11.117253 0.446161 2.778188 -0.848668
2003-02-11 07:40:04 51°13.847 2°55.62 11.119282 0.445953 2.776999 -0.848668
2003-02-11 07:40:09 51°13.855 2°55.614 11.122786 0.445953 2.777048 -0.814958
2003-02-11 07:40:13 51°13.862 2°55.609 11.125368 0.446161 2.779156 -0.814958
2003-02-11 07:40:19 51°13.872 2°55.602 11.125229 0.445744 2.776439 -0.848668
2003-02-11 07:40:24 51°13.881 2°55.596 11.125229 0.445744 2.776439 -0.848668
2003-02-11 07:40:29 51°13.889 2°55.59 11.124814 0.445953 2.778161 -0.848668
2003-02-11 07:40:34 51°13.898 2°55.584 11.123846 0.445849 2.77805 -0.848668
2003-02-11 07:40:39 51°13.906 2°55.578 11.120204 0.445849 2.777905 -0.848668
2003-02-11 07:40:44 51°13.915 2°55.571 11.123662 0.445849 2.778293 -0.814958
2003-02-11 07:40:48 51°13.922 2°55.566 11.124584 0.445744 2.777649 -0.814958
2003-02-11 07:40:54 51°13.933 2°55.559 11.124584 0.445744 2.777649 -0.814958
2003-02-11 07:40:59 51°13.942 2°55.553 11.126336 0.445849 2.778147 -0.848668
2003-02-11 07:41:04 51°13.951 2°55.546 11.13173 0.445849 2.778632 -0.814958
2003-02-11 07:41:09 51°13.96 2°55.54 11.136017 0.445744 2.778037 -0.814958
2003-02-11 07:41:13 51°13.968 2°55.535 11.132237 0.445744 2.778715 -0.814958
2003-02-11 07:41:19 51°13.978 2°55.526 11.132283 0.445536 2.777671 -0.848668
2003-02-11 07:41:24 51°13.988 2°55.519 11.132283 0.445536 2.777671 -0.848668
2003-02-11 07:41:29 51°13.997 2°55.513 11.130577 0.445744 2.778764 -0.848668
2003-02-11 07:41:34 51°14.006 2°55.506 11.132974 0.44564 2.778314 -0.814958
2003-02-11 07:41:39 51°14.015 2°55.498 11.126336 0.44564 2.778217 -0.848668
2003-02-11 07:41:44 51°14.025 2°55.491 11.116331 0.445849 2.779844 -0.848668
2003-02-11 07:41:49 51°14.034 2°55.484 11.118682 0.44564 2.778751 -0.814958
2003-02-11 07:41:53 51°14.042 2°55.478 11.118682 0.44564 2.778751 -0.814958
2003-02-11 07:41:58 51°14.051 2°55.47 11.121495 0.445536 2.777477 -0.848668
2003-02-11 07:42:04 51°14.062 2°55.461 11.123708 0.44564 2.778848 -0.848668
2003-02-11 07:42:08 51°14.07 2°55.455 11.125737 0.445536 2.777962 -0.814958
2003-02-11 07:42:13 51°14.08 2°55.448 11.118313 0.44564 2.778605 -0.814958
2003-02-11 07:42:19 51°14.092 2°55.439 11.127903 0.445536 2.777768 -0.814958
2003-02-11 07:42:25 51°14.104 2°55.43 11.127903 0.445536 2.777768 -0.814958
2003-02-11 07:42:29 51°14.112 2°55.424 11.125598 0.44564 2.778508 -0.814958
2003-02-11 07:42:33 51°14.12 2°55.418 11.124031 0.44564 2.778799 -0.848668
2003-02-11 07:42:39 51°14.132 2°55.409 11.126105 0.44564 2.778605 -0.848668
2003-02-11 07:42:44 51°14.142 2°55.401 11.129609 0.44564 2.778605 -0.848668
2003-02-11 07:42:49 51°14.151 2°55.393 11.138183 0.44564 2.778411 -0.848668
2003-02-11 07:42:54 51°14.161 2°55.385 11.138183 0.44564 2.778411 -0.848668
2003-02-11 07:42:59 51°14.171 2°55.376 11.139566 0.445536 2.778059 -0.814958
2003-02-11 07:43:05 51°14.183 2°55.365 11.129471 0.44564 2.77846 -0.848668
2003-02-11 07:43:09 51°14.191 2°55.358 11.130531 0.445744 2.779782 -0.814958
2003-02-11 07:43:14 51°14.2 2°55.348 11.130255 0.445536 2.778883 -0.848668
2003-02-11 07:43:19 51°14.21 2°55.338 11.131407 0.445536 2.778592 -0.848668
2003-02-11 07:43:24 51°14.219 2°55.327 11.131407 0.445536 2.778592 -0.848668
2003-02-11 07:43:29 51°14.228 2°55.316 11.12712 0.445744 2.78051 -0.848668
2003-02-11 07:43:33 51°14.235 2°55.307 11.128272 0.445431 2.778821 -0.848668
2003-02-11 07:43:39 51°14.246 2°55.292 11.127258 0.445849 2.78096 -0.848668
2003-02-11 07:43:45 51°14.257 2°55.276 11.132882 0.445431 2.779258 -0.848668
2003-02-11 07:43:49 51°14.264 2°55.265 11.140211 0.445327 2.778614 -0.848668
2003-02-11 07:43:55 51°14.274 2°55.248 11.140211 0.445327 2.778614 -0.848668
2003-02-11 07:43:59 51°14.281 2°55.236 11.134542 0.445849 2.782709 -0.848668
2003-02-11 07:44:04 51°14.289 2°55.221 11.138506 0.445327 2.779003 -0.848668
2003-02-11 07:44:08 51°14.296 2°55.208 11.125737 0.445536 2.781116 -0.814958
2003-02-11 07:44:12 51°14.303 2°55.196 11.124307 0.445536 2.780582 -0.848668
2003-02-11 07:44:18 51°14.313 2°55.177 11.13574 0.445223 2.778553 -0.814958
2003-02-11 07:44:24 51°14.323 2°55.158 11.13574 0.445223 2.778553 -0.814958
2003-02-11 07:44:29 51°14.332 2°55.142 11.133666 0.445431 2.780035 -0.848668
2003-02-11 07:44:34 51°14.34 2°55.125 11.141179 0.445431 2.779889 -0.848668
2003-02-11 07:44:38 51°14.347 2°55.113 11.126474 0.445119 2.777666 -0.882377
2003-02-11 07:44:42 51°14.354 2°55.1 11.144406 0.445327 2.779245 -0.848668
2003-02-11 07:44:48 51°14.365 2°55.082 11.140672 0.445119 2.777763 -0.814958
2003-02-11 07:44:52 51°14.373 2°55.07 11.140672 0.445119 2.777763 -0.814958
2003-02-11 07:44:58 51°14.385 2°55.052 11.135325 0.445431 2.780084 -0.814958
2003-02-11 07:45:04 51°14.397 2°55.034 11.134081 0.445327 2.779439 -0.814958
2003-02-11 07:45:08 51°14.407 2°55.022 11.119282 0.445431 2.780229 -0.848668
2003-02-11 07:45:12 51°14.416 2°55.01 11.101297 0.445119 2.778345 -0.848668
2003-02-11 07:45:18 51°14.431 2°54.993 11.125322 0.445119 2.7782 -0.848668
2003-02-11 07:45:23 51°14.444 2°54.978 11.125322 0.445119 2.7782 -0.848668
2003-02-11 07:45:28 51°14.457 2°54.964 11.11587 0.445327 2.779634 -0.814958
2003-02-11 07:45:32 51°14.468 2°54.952 11.114809 0.44491 2.777203 -0.814958
2003-02-11 07:45:39 51°14.487 2°54.932 11.12191 0.445119 2.778928 -0.848668
2003-02-11 07:45:43 51°14.499 2°54.92 11.114164 0.445014 2.778769 -0.848668
2003-02-11 07:45:48 51°14.513 2°54.905 11.106232 0.445014 2.77911 -0.848668
2003-02-11 07:45:53 51°14.527 2°54.891 11.106232 0.445014 2.77911 -0.848668
2003-02-11 07:45:59 51°14.544 2°54.873 11.114947 0.445223 2.780836 -0.848668
2003-02-11 07:46:03 51°14.556 2°54.861 11.102865 0.44491 2.779048 -0.848668
2003-02-11 07:46:08 51°14.57 2°54.847 11.100421 0.445119 2.780629 -0.848668
2003-02-11 07:46:13 51°14.585 2°54.832 11.114071 0.444597 2.777309 -0.848668
2003-02-11 07:46:19 51°14.602 2°54.815 11.116607 0.445014 2.780033 -0.814958
2003-02-11 07:46:23 51°14.614 2°54.803 11.116607 0.445014 2.780033 -0.814958
2003-02-11 07:46:27 51°14.626 2°54.791 11.115685 0.445014 2.780033 -0.848668
2003-02-11 07:46:33 51°14.644 2°54.773 11.113518 0.44491 2.779388 -0.882377
2003-02-11 07:46:39 51°14.662 2°54.754 11.112042 0.445119 2.780872 -0.848668
2003-02-11 07:46:43 51°14.674 2°54.742 11.120342 0.444806 2.778841 -0.814958
2003-02-11 07:46:48 51°14.689 2°54.727 11.120757 0.444701 2.778099 -0.814958
2003-02-11 07:46:53 51°14.705 2°54.712 11.120757 0.444701 2.778099 -0.814958
2003-02-11 07:46:57 51°14.717 2°54.699 11.119604 0.445119 2.780581 -0.848668
2003-02-11 07:47:04 51°14.738 2°54.678 11.119927 0.444493 2.776518 -0.848668
2003-02-11 07:47:08 51°14.75 2°54.666 11.119604 0.445014 2.779839 -0.848668
2003-02-11 07:47:12 51°14.763 2°54.654 11.125506 0.444806 2.778744 -0.814958
2003-02-11 07:47:19 51°14.784 2°54.633 11.120573 0.444701 2.778293 -0.814958
2003-02-11 07:47:23 51°14.797 2°54.62 11.120573 0.444701 2.778293 -0.814958
2003-02-11 07:47:28 51°14.812 2°54.605 11.115178 0.444493 2.776955 -0.848668
2003-02-11 07:47:32 51°14.824 2°54.593 11.117253 0.445119 2.781116 -0.814958
2003-02-11 07:47:39 51°14.845 2°54.571 11.119604 0.444389 2.776602 -0.848668
2003-02-11 07:47:44 51°14.861 2°54.555 11.122786 0.444806 2.77923 -0.814958
2003-02-11 07:47:48 51°14.873 2°54.543 11.124446 0.444701 2.778634 -0.848668
2003-02-11 07:47:53 51°14.888 2°54.528 11.124446 0.444701 2.778634 -0.848668
2003-02-11 07:47:59 51°14.907 2°54.509 11.12357 0.44491 2.780069 -0.848668
2003-02-11 07:48:04 51°14.922 2°54.493 11.124676 0.444493 2.777441 -0.848668
2003-02-11 07:48:08 51°14.934 2°54.481 11.118821 0.445014 2.780568 -0.848668
2003-02-11 07:48:13 51°14.95 2°54.465 11.121126 0.444493 2.777053 -0.848668
2003-02-11 07:48:18 51°14.965 2°54.449 11.116146 0.444701 2.77878 -0.814958
2003-02-11 07:48:23 51°14.98 2°54.434 11.116146 0.444701 2.77878 -0.814958
2003-02-11 07:48:28 51°14.996 2°54.418 11.118775 0.444284 2.776686 -0.848668
2003-02-11 07:48:33 51°15.011 2°54.402 11.119466 0.444493 2.778268 -0.848668
2003-02-11 07:48:37 51°15.023 2°54.39 11.117484 0.444493 2.778365 -0.848668
2003-02-11 07:48:43 51°15.042 2°54.371 11.120204 0.44418 2.776138 -0.814958
2003-02-11 07:48:48 51°15.057 2°54.356 11.119973 0.444701 2.779217 -0.848668
2003-02-11 07:48:52 51°15.07 2°54.343 11.119973 0.444701 2.779217 -0.848668
2003-02-11 07:48:58 51°15.088 2°54.324 11.121403 0.444597 2.778232 -0.814958
2003-02-11 07:49:00 51°15.095 2°54.318 11.121633 0.444806 2.779522 -0.848668
2003-02-11 07:49:08 51°15.12 2°54.293 11.120849 0.444493 2.777879 -0.848668
2003-02-11 07:49:13 51°15.136 2°54.278 11.116515 0.444597 2.778621 -0.848668
2003-02-11 07:49:18 51°15.152 2°54.262 11.118775 0.444701 2.779607 -0.848668
2003-02-11 07:49:24 51°15.17 2°54.243 11.118775 0.444701 2.779607 -0.848668
2003-02-11 07:49:28 51°15.183 2°54.231 11.120204 0.444597 2.779351 -0.814958
2003-02-11 07:49:32 51°15.195 2°54.218 11.118959 0.444284 2.777513 -0.848668
2003-02-11 07:49:39 51°15.217 2°54.195 -999 0.444597 2.779643 -0.814958
2003-02-11 07:49:43 51°15.229 2°54.183 -999 0.444597 2.779594 -0.814958
2003-02-11 07:49:48 51°15.245 2°54.167 -999 0.444389 2.778352 -0.814958
2003-02-11 07:49:52 51°15.258 2°54.154 -999 0.444389 2.778352 -0.814958
2003-02-11 07:49:58 51°15.277 2°54.135 -999 0.444701 2.780191 -0.882377
2003-02-11 07:50:03 51°15.293 2°54.12 -999 0.44418 2.776965 -0.848668
2003-02-11 07:50:08 51°15.309 2°54.105 -999 0.444389 2.778304 -0.848668
2003-02-11 07:50:13 51°15.324 2°54.089 -999 0.444597 2.780032 -0.848668
2003-02-11 07:50:19 51°15.343 2°54.071 -999 0.444493 2.779387 -0.848668
2003-02-11 07:50:23 51°15.356 2°54.058 -999 0.444493 2.779387 -0.848668
2003-02-11 07:50:28 51°15.372 2°54.043 -999 0.444284 2.778145 -0.848668
2003-02-11 07:50:33 51°15.388 2°54.027 -999 0.444284 2.778145 -0.814958
2003-02-11 07:50:38 51°15.404 2°54.012 -999 0.444701 2.78058 -0.848668
2003-02-11 07:50:44 51°15.422 2°53.993 -999 0.444389 2.778742 -0.848668
2003-02-11 07:50:49 51°15.437 2°53.977 -999 0.444389 2.77879 -0.848668
2003-02-11 07:50:53 51°15.45 2°53.964 -999 0.444389 2.77879 -0.848668
2003-02-11 07:50:58 51°15.465 2°53.947 -999 0.444493 2.779776 -0.848668
2003-02-11 07:51:02 51°15.477 2°53.934 -999 0.471927 2.998977 -0.545283
2003-02-11 07:51:06 51°15.489 2°53.92 -999 0.668479 4.345725 -0.781249
2003-02-11 07:51:13 51°15.51 2°53.897 -999 1.143863 7.771046 1.645828
2003-02-11 07:51:18 51°15.525 2°53.88 -999 1.459291 10.671417 2.218888
2003-02-11 07:51:23 51°15.54 2°53.863 -999 1.459291 10.671417 2.218888
2003-02-11 07:51:29 51°15.558 2°53.842 -999 2.102324 16.833257 3.398717
2003-02-11 07:51:32 51°15.568 2°53.832 -999 2.234918 19.197387 5.893212
2003-02-11 07:51:39 51°15.59 2°53.807 -999 2.414753 22.04703 5.792084
2003-02-11 07:51:43 51°15.602 2°53.793 -999 2.653875 25.252532 4.477418
2003-02-11 07:51:48 51°15.618 2°53.776 -999 2.822834 27.742157 3.600973
2003-02-11 07:51:53 51°15.634 2°53.759 -999 2.822834 27.742157 3.600973
2003-02-11 07:51:58 51°15.65 2°53.742 -999 2.865349 28.564186 3.432426
2003-02-11 07:52:03 51°15.666 2°53.724 -999 2.874086 28.946464 3.162751
2003-02-11 07:52:08 51°15.682 2°53.706 -999 2.872614 29.084436 3.061623
2003-02-11 07:52:12 51°15.695 2°53.692 -999 2.862408 29.110015 2.724529
2003-02-11 07:52:19 51°15.717 2°53.668 -999 2.888401 29.48768 2.6234
2003-02-11 07:52:23 51°15.73 2°53.654 -999 2.888401 29.48768 2.6234
2003-02-11 07:52:28 51°15.746 2°53.636 -999 2.865251 29.29446 2.522272
2003-02-11 07:52:33 51°15.762 2°53.619 -999 2.858728 29.260758 2.522272
2003-02-11 07:52:36 51°15.772 2°53.608 -999 2.851888 29.228031 2.488563
2003-02-11 07:52:43 51°15.794 2°53.583 -999 2.848101 29.222073 2.454853
2003-02-11 07:52:49 51°15.813 2°53.562 -999 2.846522 29.225742 2.387435
2003-02-11 07:52:53 51°15.826 2°53.548 -999 2.846522 29.225742 2.387435
2003-02-11 07:52:58 51°15.842 2°53.53 -999 2.844944 29.23404 2.454853
2003-02-11 07:53:03 51°15.858 2°53.512 -999 2.842735 29.239825 2.454853
2003-02-11 07:53:08 51°15.873 2°53.494 -999 2.841788 29.256869 2.421144
2003-02-11 07:53:13 51°15.889 2°53.476 -999 2.846313 29.336892 2.387435
2003-02-11 07:53:17 51°15.902 2°53.461 -999 2.830004 29.169362 2.421144
2003-02-11 07:53:23 51°15.921 2°53.44 -999 2.830004 29.169362 2.421144
2003-02-11 07:53:28 51°15.937 2°53.421 -999 2.83979 29.320899 2.387435
2003-02-11 07:53:33 51°15.953 2°53.404 -999 2.844525 29.387258 2.387435
2003-02-11 07:53:37 51°15.965 2°53.389 -999 2.838422 29.330191 2.387435
2003-02-11 07:53:43 51°15.984 2°53.368 -999 2.838738 29.339232 2.353725
2003-02-11 07:53:48 51°16 2°53.35 -999 2.836844 29.322318 2.387435
2003-02-11 07:53:52 51°16.013 2°53.336 -999 2.836844 29.322318 2.387435
2003-02-11 07:53:56 51°16.026 2°53.321 -999 2.841895 29.386892 2.320016
2003-02-11 07:54:04 51°16.051 2°53.292 -999 2.847156 29.455476 2.252597
2003-02-11 07:54:08 51°16.063 2°53.278 -999 2.847366 29.450842 2.286306
2003-02-11 07:54:13 51°16.079 2°53.26 -999 2.852628 29.506935 2.286306
2003-02-11 07:54:18 51°16.095 2°53.242 -999 2.852733 29.504222 2.353725
2003-02-11 07:54:23 51°16.111 2°53.225 -999 2.852733 29.504222 2.353725
2003-02-11 07:54:28 51°16.127 2°53.207 -999 2.859994 29.581545 2.252597
2003-02-11 07:54:33 51°16.143 2°53.189 -999 2.863571 29.625499 2.218888
2003-02-11 07:54:39 51°16.163 2°53.168 -999 2.864939 29.645825 2.151469
2003-02-11 07:54:43 51°16.176 2°53.155 -999 2.866202 29.657089 2.218888
2003-02-11 07:54:48 51°16.192 2°53.138 -999 2.867886 29.672367 2.252597
2003-02-11 07:54:53 51°16.209 2°53.122 -999 2.867886 29.672367 2.252597
2003-02-11 07:54:59 51°16.229 2°53.102 -999 2.872726 29.727609 2.218888
2003-02-11 07:55:03 51°16.242 2°53.089 -999 2.872621 29.723254 2.218888
2003-02-11 07:55:08 51°16.259 2°53.073 -999 2.873358 29.725355 2.185178
2003-02-11 07:55:13 51°16.275 2°53.056 -999 2.875673 29.748617 2.08405
2003-02-11 07:55:18 51°16.292 2°53.04 -999 2.878198 29.770333 2.117759
2003-02-11 07:55:22 51°16.305 2°53.027 -999 2.878198 29.770333 2.117759
2003-02-11 07:55:28 51°16.326 2°53.007 -999 2.878724 29.777126 2.050341
2003-02-11 07:55:33 51°16.342 2°52.991 -999 2.882197 29.817541 2.050341
2003-02-11 07:55:39 51°16.362 2°52.971 -999 2.878829 29.779115 2.050341
2003-02-11 07:55:43 51°16.376 2°52.958 -999 2.877672 29.772221 2.08405
2003-02-11 07:55:48 51°16.392 2°52.942 -999 2.876304 29.760555 1.982922
2003-02-11 07:55:53 51°16.409 2°52.926 -999 2.876304 29.760555 1.982922
2003-02-11 07:55:58 51°16.426 2°52.91 -999 2.872937 29.72134 2.050341
2003-02-11 07:56:04 51°16.446 2°52.89 -999 2.881776 29.833296 2.050341
2003-02-11 07:56:08 51°16.459 2°52.877 -999 2.873884 29.751078 1.915503
2003-02-11 07:56:13 51°16.476 2°52.861 -999 2.87662 29.788642 1.949212
2003-02-11 07:56:17 51°16.49 2°52.848 -999 2.869885 29.71804 1.848084
2003-02-11 07:56:24 51°16.513 2°52.825 -999 2.869885 29.71804 1.848084
2003-02-11 07:56:29 51°16.53 2°52.809 -999 2.872095 29.743279 1.915503
2003-02-11 07:56:32 51°16.54 2°52.799 -999 2.870201 29.732694 1.848084
2003-02-11 07:56:39 51°16.563 2°52.777 -999 2.869254 29.725031 1.881794
2003-02-11 07:56:43 51°16.576 2°52.764 -999 2.865466 29.684904 1.814375
2003-02-11 07:56:47 51°16.59 2°52.751 -999 2.867991 29.717706 1.814375
2003-02-11 07:56:53 51°16.61 2°52.732 -999 2.867991 29.717706 1.814375
2003-02-11 07:56:58 51°16.627 2°52.715 -999 2.863677 29.670771 1.780665
2003-02-11 07:57:03 51°16.643 2°52.699 -999 2.869044 29.740792 1.746956
2003-02-11 07:57:07 51°16.657 2°52.686 -999 2.872201 29.773722 1.746956
2003-02-11 07:57:13 51°16.677 2°52.667 -999 2.870307 29.757602 1.713247
2003-02-11 07:57:17 51°16.69 2°52.654 -999 2.870622 29.765167 1.746956
2003-02-11 07:57:23 51°16.71 2°52.634 -999 2.870622 29.765167 1.746956
2003-02-11 07:57:28 51°16.727 2°52.618 -999 2.866624 29.723392 1.679537
2003-02-11 07:57:32 51°16.74 2°52.605 -999 2.869781 29.764242 1.848084
2003-02-11 07:57:38 51°16.76 2°52.586 -999 2.869254 29.761389 1.746956
2003-02-11 07:57:44 51°16.78 2°52.566 -999 2.868834 29.759739 1.780665
2003-02-11 07:57:48 51°16.793 2°52.553 -999 2.869991 29.779318 1.746956
2003-02-11 07:57:52 51°16.807 2°52.541 -999 2.869991 29.779318 1.746956
2003-02-11 07:57:58 51°16.826 2°52.521 -999 2.869675 29.779666 1.713247
2003-02-11 07:58:03 51°16.843 2°52.506 -999 2.866624 29.744742 1.713247
2003-02-11 07:58:08 51°16.86 2°52.492 -999 2.861889 29.692929 1.746956
2003-02-11 07:58:13 51°16.878 2°52.479 -999 2.864625 29.72819 1.848084
2003-02-11 07:58:18 51°16.897 2°52.467 -999 2.866308 29.74746 1.645828
2003-02-11 07:58:23 51°16.916 2°52.455 -999 2.866308 29.74746 1.645828
2003-02-11 07:58:28 51°16.934 2°52.443 -999 2.864309 29.728533 1.645828
2003-02-11 07:58:32 51°16.949 2°52.434 -999 2.863362 29.719274 1.746956
2003-02-11 07:58:39 51°16.975 2°52.418 -999 2.863678 29.723679 1.746956
2003-02-11 07:58:43 51°16.99 2°52.409 -999 2.867045 29.76302 1.713247
2003-02-11 07:58:48 51°17.009 2°52.399 -999 2.864625 29.736103 1.713247
2003-02-11 07:58:52 51°17.024 2°52.391 -999 2.864625 29.736103 1.713247
2003-02-11 07:58:58 51°17.047 2°52.381 -999 2.860942 29.693154 1.746956
2003-02-11 07:59:03 51°17.066 2°52.372 -999 2.861363 29.699552 1.645828
2003-02-11 07:59:08 51°17.086 2°52.364 -999 2.859574 29.679077 1.612118
2003-02-11 07:59:13 51°17.105 2°52.355 -999 2.866519 29.756996 1.645828
2003-02-11 07:59:19 51°17.129 2°52.346 -999 2.86494 29.742884 1.679537
2003-02-11 07:59:23 51°17.145 2°52.339 -999 2.86494 29.742884 1.679537
2003-02-11 07:59:28 51°17.164 2°52.331 -999 2.865677 29.756863 1.645828
2003-02-11 07:59:33 51°17.184 2°52.323 -999 2.863678 29.736343 1.679537
2003-02-11 07:59:37 51°17.2 2°52.316 -999 2.859889 29.69771 1.645828
2003-02-11 07:59:43 51°17.223 2°52.306 -999 2.863467 29.740268 1.612118
2003-02-11 07:59:48 51°17.243 2°52.298 -999 2.861784 29.725735 1.645828
2003-02-11 07:59:53 51°17.263 2°52.292 -999 2.861784 29.725735 1.645828
2003-02-11 07:59:58 51°17.283 2°52.285 -999 2.860626 29.716434 1.645828
2003-02-11 08:00:04 51°17.307 2°52.279 -999 2.857259 29.681025 1.645828
2003-02-11 08:00:09 51°17.327 2°52.273 -999 2.861573 29.732036 1.612118
2003-02-11 08:00:12 51°17.339 2°52.271 -999 2.85789 29.693005 1.645828
2003-02-11 08:00:18 51°17.363 2°52.267 -999 2.859574 29.712296 1.612118
2003-02-11 08:00:24 51°17.388 2°52.265 -999 2.859574 29.712296 1.612118
2003-02-11 08:00:28 51°17.404 2°52.263 -999 2.857785 29.691008 1.612118
2003-02-11 08:00:33 51°17.424 2°52.262 -999 2.85768 29.691385 1.679537
2003-02-11 08:00:38 51°17.445 2°52.26 -999 2.858837 29.71019 1.645828
2003-02-11 08:00:43 51°17.465 2°52.259 -999 2.857996 29.698168 1.578409
2003-02-11 08:00:48 51°17.486 2°52.259 -999 2.853892 29.652727 1.645828
2003-02-11 08:00:53 51°17.507 2°52.259 -999 2.853892 29.652727 1.645828
2003-02-11 08:00:59 51°17.531 2°52.258 -999 2.861258 29.730796 1.679537
2003-02-11 08:01:03 51°17.548 2°52.258 -999 2.85989 29.712745 1.645828
2003-02-11 08:01:08 51°17.568 2°52.257 -999 2.864204 29.760595 1.679537
2003-02-11 08:01:13 51°17.589 2°52.257 -999 2.87136 29.845788 1.578409
2003-02-11 08:01:17 51°17.606 2°52.256 -999 2.867571 29.802362 1.612118
2003-02-11 08:01:23 51°17.63 2°52.256 -999 2.867571 29.802362 1.612118
2003-02-11 08:01:28 51°17.651 2°52.255 -999 2.868413 29.808834 1.578409
2003-02-11 08:01:33 51°17.672 2°52.255 -999 2.871465 29.841427 1.612118
2003-02-11 08:01:37 51°17.688 2°52.254 -999 2.874201 29.873586 1.578409
2003-02-11 08:01:43 51°17.713 2°52.254 -999 2.867782 29.802391 1.578409
2003-02-11 08:01:53 51°17.754 2°52.257 -999 2.873254 29.865116 1.578409
2003-02-11 08:01:57 51°17.77 2°52.26 -999 2.868624 29.810451 1.5447
2003-02-11 08:02:03 51°17.794 2°52.265 -999 2.877358 29.911374 1.578409
2003-02-11 08:02:08 51°17.814 2°52.271 -999 2.879357 29.929517 1.612118
2003-02-11 08:02:13 51°17.835 2°52.276 -999 2.880304 29.936388 1.578409
2003-02-11 08:02:19 51°17.859 2°52.284 -999 2.879883 29.924388 1.51099
2003-02-11 08:02:23 51°17.875 2°52.289 -999 2.879883 29.924388 1.51099
2003-02-11 08:02:28 51°17.896 2°52.297 -999 2.877989 29.891534 1.578409
2003-02-11 08:02:32 51°17.912 2°52.304 -999 2.886828 29.989632 1.645828
2003-02-11 08:02:38 51°17.935 2°52.317 -999 2.888933 30.012955 1.612118
2003-02-11 08:02:44 51°17.959 2°52.33 -999 2.891669 30.042716 1.578409
2003-02-11 08:02:48 51°17.974 2°52.34 -999 2.898194 30.111903 1.5447
2003-02-11 08:02:52 51°17.989 2°52.349 -999 2.898194 30.111903 1.5447
2003-02-11 08:02:59 51°18.017 2°52.367 -999 2.900298 30.128014 1.578409
2003-02-11 08:03:03 51°18.032 2°52.377 -999 2.903455 30.153774 1.578409
2003-02-11 08:03:08 51°18.051 2°52.39 -999 2.911559 30.236199 1.612118
2003-02-11 08:03:13 51°18.07 2°52.402 -999 2.908822 30.193606 1.645828
2003-02-11 08:03:16 51°18.081 2°52.41 -999 2.913558 30.239821 1.612118
2003-02-11 08:03:23 51°18.108 2°52.428 -999 2.913558 30.239821 1.612118
2003-02-11 08:03:27 51°18.123 2°52.438 -999 2.922819 30.342696 1.612118
2003-02-11 08:03:33 51°18.146 2°52.453 -999 2.919767 30.300485 1.645828
2003-02-11 08:03:37 51°18.161 2°52.463 -999 2.924608 30.34949 1.612118
2003-02-11 08:03:43 51°18.185 2°52.478 -999 2.928186 30.381604 1.713247
2003-02-11 08:03:48 51°18.204 2°52.489 -999 2.930186 30.396437 1.645828
2003-02-11 08:03:53 51°18.223 2°52.502 -999 2.930186 30.396437 1.645828
2003-02-11 08:03:58 51°18.242 2°52.516 -999 2.927239 30.352227 1.780665
2003-02-11 08:04:03 51°18.26 2°52.531 -999 2.937237 30.4586 1.679537
2003-02-11 08:04:08 51°18.278 2°52.548 -999 2.931975 30.389506 1.713247
2003-02-11 08:04:13 51°18.296 2°52.565 -999 2.93671 30.439661 1.713247
2003-02-11 08:04:17 51°18.31 2°52.58 -999 2.941446 30.490624 1.713247
2003-02-11 08:04:23 51°18.331 2°52.601 -999 2.941446 30.490624 1.713247
2003-02-11 08:04:27 51°18.344 2°52.616 -999 2.938184 30.44361 1.679537
2003-02-11 08:04:32 51°18.361 2°52.634 -999 2.94313 30.4905 1.713247
2003-02-11 08:04:36 51°18.374 2°52.649 -999 2.939762 30.443116 1.679537
2003-02-11 08:04:44 51°18.401 2°52.68 -999 2.940815 30.458374 1.713247
2003-02-11 08:04:48 51°18.414 2°52.695 -999 2.94292 30.490516 1.578409
2003-02-11 08:04:53 51°18.431 2°52.714 -999 2.94292 30.490516 1.578409
2003-02-11 08:04:58 51°18.447 2°52.735 -999 2.929659 30.339694 1.645828
2003-02-11 08:05:03 51°18.464 2°52.754 -999 2.941762 30.483734 1.645828
2003-02-11 08:05:08 51°18.48 2°52.775 -999 2.937447 30.434377 1.713247
2003-02-11 08:05:13 51°18.496 2°52.794 -999 2.943025 30.494143 1.713247
2003-02-11 08:05:19 51°18.516 2°52.818 -999 2.946814 30.531016 1.746956
2003-02-11 08:05:23 51°18.528 2°52.835 -999 2.946814 30.531016 1.746956
2003-02-11 08:05:28 51°18.545 2°52.855 -999 2.947971 30.535363 1.780665
2003-02-11 08:05:33 51°18.56 2°52.876 -999 2.952918 30.582222 1.679537
2003-02-11 08:05:37 51°18.573 2°52.892 -999 2.953128 30.574109 1.679537
2003-02-11 08:05:47 51°18.606 2°52.933 -999 2.958075 30.62499 1.746956
2003-02-11 08:05:51 51°18.618 2°52.95 -999 2.954286 30.575209 1.713247
2003-02-11 08:05:56 51°18.635 2°52.97 -999 2.958391 30.61888 1.746956
2003-02-11 08:05:59 51°18.644 2°52.982 -999 2.957443 30.604818 1.814375
2003-02-11 08:06:07 51°18.67 2°53.015 -999 2.961022 30.641659 1.746956
2003-02-11 08:06:08 51°18.674 2°53.019 -999 2.961022 30.641659 1.746956
2003-02-11 08:06:15 51°18.696 2°53.047 -999 2.962285 30.65204 1.713247
2003-02-11 08:06:21 51°18.716 2°53.072 -999 2.966179 30.692484 1.713247
2003-02-11 08:06:25 51°18.729 2°53.088 -999 2.963863 30.669269 1.746956
2003-02-11 08:06:32 51°18.752 2°53.116 -999 2.966179 30.694918 1.713247
2003-02-11 08:06:36 51°18.765 2°53.132 -999 2.965758 30.690107 1.679537
2003-02-11 08:06:40 51°18.779 2°53.148 -999 2.965758 30.690107 1.679537
2003-02-11 08:06:47 51°18.802 2°53.176 -999 2.958811 30.612358 1.679537
2003-02-11 08:06:50 51°18.811 2°53.189 -999 2.959548 30.624822 1.746956
2003-02-11 08:06:56 51°18.831 2°53.213 -999 2.960601 30.64333 1.713247
2003-02-11 08:07:00 51°18.844 2°53.23 -999 2.964495 30.691088 1.713247
2003-02-11 08:07:06 51°18.863 2°53.255 -999 2.958285 30.620916 1.679537
2003-02-11 08:07:16 51°18.895 2°53.297 -999 2.963653 30.682273 1.746956
2003-02-11 08:07:20 51°18.907 2°53.315 -999 2.957022 30.609719 1.713247
2003-02-11 08:07:25 51°18.923 2°53.336 -999 2.962706 30.676312 1.645828
2003-02-11 08:07:32 51°18.945 2°53.366 -999 2.962601 30.67592 1.645828
2003-02-11 08:07:36 51°18.958 2°53.383 -999 2.957233 30.615364 1.679537
2003-02-11 08:07:39 51°18.967 2°53.396 -999 2.957233 30.615364 1.679537
2003-02-11 08:07:47 51°18.993 2°53.43 -999 2.956286 30.606966 1.746956
2003-02-11 08:07:51 51°19.006 2°53.447 -999 2.954812 30.594169 1.746956
2003-02-11 08:07:56 51°19.022 2°53.468 -999 2.95597 30.611455 1.679537
2003-02-11 08:08:01 51°19.038 2°53.49 -999 2.954076 30.593032 1.645828
2003-02-11 08:08:05 51°19.051 2°53.507 -999 2.949445 30.543319 1.679537
2003-02-11 08:08:09 51°19.064 2°53.524 -999 2.949445 30.543319 1.679537
2003-02-11 08:08:16 51°19.086 2°53.554 -999 2.950603 30.562218 1.645828
2003-02-11 08:08:20 51°19.098 2°53.571 -999 2.950603 30.564646 1.645828
2003-02-11 08:08:26 51°19.118 2°53.597 -999 2.945235 30.508111 1.645828
2003-02-11 08:08:29 51°19.128 2°53.61 -999 2.948603 30.553101 1.645828
2003-02-11 08:08:37 51°19.153 2°53.644 -999 2.946814 30.537487 1.645828
2003-02-11 08:08:41 51°19.166 2°53.661 -999 2.946814 30.537487 1.645828
2003-02-11 08:08:45 51°19.179 2°53.678 -999 2.946393 30.538333 1.645828
2003-02-11 08:08:52 51°19.202 2°53.707 -999 2.93871 30.452856 1.645828
2003-02-11 08:08:56 51°19.214 2°53.725 -999 2.945972 30.53918 1.679537
2003-02-11 08:08:59 51°19.224 2°53.737 -999 2.94292 30.506677 1.713247
2003-02-11 08:09:07 51°19.25 2°53.771 -999 2.943341 30.517157 1.645828
2003-02-11 08:09:11 51°19.263 2°53.789 -999 2.943341 30.517157 1.645828
2003-02-11 08:09:16 51°19.279 2°53.81 -999 2.943025 30.519206 1.679537
2003-02-11 08:09:19 51°19.288 2°53.822 -999 2.942499 30.518846 1.645828
2003-02-11 08:09:26 51°19.311 2°53.852 -999 2.941552 30.512046 1.679537
2003-02-11 08:09:32 51°19.33 2°53.878 -999 2.936079 30.449386 1.679537
2003-02-11 08:09:36 51°19.343 2°53.895 -999 2.935448 30.442965 1.645828
2003-02-11 08:09:40 51°19.356 2°53.912 -999 2.935448 30.442965 1.645828
2003-02-11 08:09:47 51°19.379 2°53.941 -999 2.937658 30.467459 1.713247
2003-02-11 08:09:50 51°19.388 2°53.954 -999 2.935974 30.447374 1.679537
2003-02-11 08:09:56 51°19.408 2°53.98 -999 2.939237 30.484726 1.645828
2003-02-11 08:10:01 51°19.424 2°54.001 -999 2.941552 30.511237 1.679537
2003-02-11 08:10:05 51°19.437 2°54.017 -999 2.937553 30.465446 1.679537
2003-02-11 08:10:11 51°19.457 2°54.043 -999 2.937553 30.465446 1.679537
2003-02-11 08:10:15 51°19.47 2°54.06 -999 2.937237 30.465064 1.679537
2003-02-11 08:10:20 51°19.486 2°54.081 -999 2.934816 30.436543 1.713247
2003-02-11 08:10:25 51°19.502 2°54.102 -999 2.932606 30.420926 1.713247
2003-02-11 08:10:32 51°19.525 2°54.131 -999 2.926397 30.355475 1.713247
2003-02-11 08:10:36 51°19.538 2°54.148 -999 2.926502 30.361515 1.679537
2003-02-11 08:10:39 51°19.548 2°54.161 -999 2.926502 30.361515 1.679537
2003-02-11 08:10:45 51°19.567 2°54.186 -999 2.923135 30.325369 1.679537
2003-02-11 08:10:52 51°19.59 2°54.215 -999 2.923766 30.339042 1.679537
2003-02-11 08:10:56 51°19.603 2°54.232 -999 2.916715 30.263925 1.713247
2003-02-11 08:11:00 51°19.616 2°54.249 -999 2.914821 30.247054 1.645828
2003-02-11 08:11:06 51°19.635 2°54.274 -999 2.91882 30.295269 1.679537
2003-02-11 08:11:11 51°19.651 2°54.295 -999 2.91882 30.295269 1.679537
2003-02-11 08:11:16 51°19.668 2°54.316 -999 2.915557 30.261116 1.679537
2003-02-11 08:11:21 51°19.684 2°54.337 -999 2.919767 30.314171 1.746956
2003-02-11 08:11:26 51°19.7 2°54.358 -999 2.917452 30.289253 1.645828
2003-02-11 08:11:30 51°19.713 2°54.375 -999 2.912611 30.235399 1.645828
2003-02-11 08:11:36 51°19.732 2°54.4 -999 2.910611 30.213296 1.679537
2003-02-11 08:11:41 51°19.749 2°54.421 -999 2.910611 30.213296 1.679537
2003-02-11 08:11:46 51°19.765 2°54.442 -999 2.913032 30.241828 1.645828
2003-02-11 08:11:52 51°19.784 2°54.467 -999 2.912927 30.243034 1.612118
2003-02-11 08:11:57 51°19.8 2°54.488 -999 2.909664 30.207263 1.679537
2003-02-11 08:12:00 51°19.81 2°54.5 -999 2.910401 30.221326 1.713247
2003-02-11 08:12:07 51°19.833 2°54.529 -999 2.905876 30.173488 1.679537
2003-02-11 08:12:10 51°19.842 2°54.542 -999 2.905876 30.173488 1.679537
2003-02-11 08:12:16 51°19.862 2°54.567 -999 2.902719 30.143729 1.713247
2003-02-11 08:12:21 51°19.878 2°54.588 -999 2.902929 30.149348 1.645828
2003-02-11 08:12:25 51°19.891 2°54.604 -999 2.902508 30.151741 1.645828
2003-02-11 08:12:32 51°19.914 2°54.634 -999 2.896089 30.078972 1.645828
2003-02-11 08:12:36 51°19.927 2°54.65 -999 2.8923 30.040359 1.679537
2003-02-11 08:12:42 51°19.947 2°54.675 -999 2.8923 30.040359 1.679537
2003-02-11 08:12:47 51°19.963 2°54.696 -999 2.896089 30.086976 1.578409
2003-02-11 08:12:51 51°19.976 2°54.713 -999 2.893774 30.065241 1.612118
2003-02-11 08:12:56 51°19.992 2°54.734 -999 2.890196 30.028228 1.612118
2003-02-11 08:13:01 51°20.009 2°54.755 -999 2.893248 30.064811 1.645828
2003-02-11 08:13:07 51°20.028 2°54.78 -999 2.889985 30.032211 1.645828
2003-02-11 08:13:11 51°20.041 2°54.797 -999 2.889985 30.032211 1.645828
2003-02-11 08:13:16 51°20.058 2°54.818 -999 2.890196 30.038622 1.679537
2003-02-11 08:13:20 51°20.071 2°54.834 -999 2.889144 30.028955 1.679537
2003-02-11 08:13:26 51°20.09 2°54.86 -999 2.886618 30.003992 1.679537
2003-02-11 08:13:29 51°20.1 2°54.872 -999 2.886197 30.003161 1.713247
2003-02-11 08:13:36 51°20.123 2°54.901 -999 2.881883 29.958476 1.645828
2003-02-11 08:13:41 51°20.14 2°54.921 -999 2.881883 29.958476 1.645828
2003-02-11 08:13:44 51°20.15 2°54.934 -999 2.881041 29.950419 1.713247
2003-02-11 08:13:51 51°20.172 2°54.964 -999 2.8782 29.920231 1.612118
2003-02-11 08:13:56 51°20.189 2°54.984 -999 2.877147 29.910555 1.713247
2003-02-11 08:14:02 51°20.209 2°55.009 -999 2.875043 29.888016 1.679537
2003-02-11 08:14:04 51°20.215 2°55.018 -999 2.877042 29.910943 1.679537
2003-02-11 08:14:10 51°20.235 2°55.043 -999 2.877042 29.910943 1.679537
2003-02-11 08:14:16 51°20.254 2°55.069 -999 2.876095 29.902473 1.645828
2003-02-11 08:14:21 51°20.27 2°55.091 -999 2.869781 29.833258 1.713247
2003-02-11 08:14:27 51°20.289 2°55.117 -999 2.868308 29.819546 1.645828
2003-02-11 08:14:31 51°20.302 2°55.134 -999 2.867992 29.823082 1.645828
2003-02-11 08:14:36 51°20.318 2°55.156 -999 2.869781 29.845986 1.679537
2003-02-11 08:14:40 51°20.33 2°55.174 -999 2.869781 29.845986 1.679537
2003-02-11 08:14:47 51°20.352 2°55.205 -999 2.86694 29.81817 1.679537
2003-02-11 08:14:51 51°20.365 2°55.222 -999 2.865783 29.806482 1.679537
2003-02-11 08:14:56 51°20.381 2°55.244 -999 2.86431 29.794352 1.746956
2003-02-11 08:15:00 51°20.393 2°55.262 -999 2.858733 29.733555 1.679537
2003-02-11 08:15:06 51°20.413 2°55.289 -999 2.861889 29.771355 1.679537
2003-02-11 08:15:08 51°20.419 2°55.297 -999 2.861889 29.771355 1.679537
2003-02-11 08:15:16 51°20.444 2°55.333 -999 2.85989 29.750007 1.645828
2003-02-11 08:15:21 51°20.46 2°55.355 -999 2.858943 29.74073 1.713247
2003-02-11 08:15:25 51°20.473 2°55.372 -999 2.856838 29.720553 1.612118
2003-02-11 08:15:32 51°20.494 2°55.403 -999 2.853997 29.689547 1.612118
2003-02-11 08:15:36 51°20.507 2°55.42 -999 2.850841 29.656503 1.679537
2003-02-11 08:15:42 51°20.526 2°55.447 -999 2.850841 29.656503 1.679537
2003-02-11 08:15:44 51°20.533 2°55.455 -999 2.85063 29.657256 1.645828
2003-02-11 08:15:51 51°20.555 2°55.486 -999 2.850946 29.664045 1.645828
2003-02-11 08:15:56 51°20.57 2°55.508 -999 2.844948 29.599193 1.612118
2003-02-11 08:16:00 51°20.583 2°55.526 -999 2.847894 29.633784 1.612118
2003-02-11 08:16:07 51°20.604 2°55.557 -999 2.846737 29.623669 1.645828
2003-02-11 08:16:11 51°20.617 2°55.575 -999 2.846737 29.623669 1.645828
2003-02-11 08:16:16 51°20.632 2°55.597 -999 2.84558 29.613552 1.612118
2003-02-11 08:16:20 51°20.645 2°55.614 -999 2.844422 29.603434 1.578409
2003-02-11 08:16:27 51°20.667 2°55.645 -999 2.842528 29.585652 1.645828
2003-02-11 08:16:30 51°20.676 2°55.659 -999 2.83853 29.538194 1.5447
2003-02-11 08:16:36 51°20.695 2°55.685 -999 2.84095 29.56833 1.51099
2003-02-11 08:16:40 51°20.708 2°55.702 -999 2.84095 29.56833 1.51099
2003-02-11 08:16:45 51°20.723 2°55.724 -999 2.840003 29.562993 1.5447
2003-02-11 08:16:52 51°20.745 2°55.755 -999 2.837898 29.542789 1.578409
2003-02-11 08:16:56 51°20.758 2°55.772 -999 2.836004 29.52342 1.5447
2003-02-11 08:16:59 51°20.767 2°55.785 -999 2.834952 29.510556 1.578409
2003-02-11 08:17:07 51°20.792 2°55.82 -999 2.834321 29.504888 1.51099
2003-02-11 08:17:11 51°20.805 2°55.837 -999 2.834321 29.504888 1.51099
2003-02-11 08:17:15 51°20.817 2°55.855 -999 2.834742 29.506564 1.5447
2003-02-11 08:17:19 51°20.83 2°55.872 -999 2.83632 29.523098 1.5447
2003-02-11 08:17:26 51°20.852 2°55.903 -999 2.836004 29.519475 1.5447
2003-02-11 08:17:30 51°20.865 2°55.921 -999 2.83653 29.522357 1.443571
2003-02-11 08:17:36 51°20.883 2°55.947 -999 2.837372 29.529649 1.5447
2003-02-11 08:17:40 51°20.896 2°55.965 -999 2.837372 29.529649 1.5447
2003-02-11 08:17:46 51°20.915 2°55.991 -999 2.83632 29.518365 1.612118
2003-02-11 08:17:49 51°20.924 2°56.004 -999 2.837372 29.529649 1.477281
2003-02-11 08:17:56 51°20.946 2°56.035 -999 2.837267 29.528441 1.477281
2003-02-11 08:18:01 51°20.962 2°56.057 -999 2.834005 29.489443 1.578409
2003-02-11 08:18:05 51°20.974 2°56.075 -999 2.833584 29.486978 1.51099
2003-02-11 08:18:11 51°20.993 2°56.101 -999 2.833584 29.486978 1.51099
2003-02-11 08:18:16 51°21.009 2°56.124 -999 2.835057 29.504666 1.578409
2003-02-11 08:18:20 51°21.021 2°56.142 -999 2.835794 29.512328 1.477281
2003-02-11 08:18:27 51°21.043 2°56.173 -999 2.836846 29.525979 1.51099
2003-02-11 08:18:31 51°21.056 2°56.19 -999 2.835689 29.51191 1.477281
2003-02-11 08:18:36 51°21.071 2°56.213 -999 2.829586 29.442686 1.578409
2003-02-11 08:18:41 51°21.087 2°56.235 -999 2.829586 29.442686 1.578409
2003-02-11 08:18:45 51°21.1 2°56.253 -999 2.834847 29.504617 1.51099
2003-02-11 08:18:51 51°21.119 2°56.279 -999 2.834531 29.504937 1.477281
2003-02-11 08:18:56 51°21.135 2°56.301 -999 2.833584 29.492494 1.477281
2003-02-11 08:19:01 51°21.15 2°56.323 -999 2.835057 29.509397 1.443571
2003-02-11 08:19:05 51°21.163 2°56.34 -999 2.835057 29.508609 1.5447
2003-02-11 08:19:10 51°21.179 2°56.362 -999 2.835057 29.508609 1.5447
2003-02-11 08:19:16 51°21.198 2°56.389 -999 2.832427 29.482365 1.5447
2003-02-11 08:19:21 51°21.213 2°56.411 -999 2.833479 29.492863 1.477281
2003-02-11 08:19:26 51°21.229 2°56.433 -999 2.832848 29.486407 1.5447
2003-02-11 08:19:28 51°21.236 2°56.442 -999 2.827061 29.421584 1.51099
2003-02-11 08:19:36 51°21.261 2°56.477 -999 2.830638 29.464203 1.409862
2003-02-11 08:19:41 51°21.277 2°56.499 -999 2.830638 29.464203 1.409862
2003-02-11 08:19:47 51°21.296 2°56.525 -999 2.827376 29.429138 1.443571
2003-02-11 08:19:52 51°21.311 2°56.548 -999 2.832322 29.487463 1.51099
2003-02-11 08:19:56 51°21.324 2°56.565 -999 2.834005 29.50442 1.409862
2003-02-11 08:20:02 51°21.343 2°56.592 -999 2.834426 29.512406 1.51099
2003-02-11 08:20:04 51°21.349 2°56.6 -999 2.832427 29.487882 1.443571
2003-02-11 08:20:11 51°21.371 2°56.631 -999 2.832427 29.487882 1.443571
2003-02-11 08:20:15 51°21.384 2°56.649 -999 2.831164 29.471816 1.51099
2003-02-11 08:20:20 51°21.399 2°56.672 -999 2.83411 29.505627 1.409862
2003-02-11 08:20:26 51°21.418 2°56.698 -999 2.83611 29.525417 1.409862
2003-02-11 08:20:31 51°21.433 2°56.72 -999 2.837898 29.545158 1.376153
2003-02-11 08:20:36 51°21.449 2°56.743 -999 2.836215 29.525835 1.342443
2003-02-11 08:20:42 51°21.468 2°56.769 -999 2.836215 29.525835 1.342443
2003-02-11 08:20:46 51°21.48 2°56.787 -999 2.839687 29.56569 1.443571
2003-02-11 08:20:50 51°21.493 2°56.805 -999 2.839898 29.566526 1.376153
2003-02-11 08:20:56 51°21.512 2°56.832 -999 2.837478 29.540327 1.443571
2003-02-11 08:20:58 51°21.518 2°56.84 -999 2.83653 29.52788 1.308734
2003-02-11 08:21:06 51°21.543 2°56.875 -999 2.835899 29.522213 1.308734
2003-02-11 08:21:11 51°21.559 2°56.897 -999 2.835899 29.522213 1.308734
2003-02-11 08:21:16 51°21.575 2°56.92 -999 2.833479 29.496805 1.409862
2003-02-11 08:21:21 51°21.59 2°56.942 -999 2.839477 29.564855 1.241315
2003-02-11 08:21:26 51°21.606 2°56.964 -999 2.834847 29.515659 1.376153
2003-02-11 08:21:29 51°21.616 2°56.977 -999 2.833584 29.502744 1.409862
2003-02-11 08:21:37 51°21.641 2°57.013 -999 2.836425 29.540094 1.308734
2003-02-11 08:21:42 51°21.656 2°57.035 -999 2.836425 29.540094 1.308734
2003-02-11 08:21:46 51°21.669 2°57.052 -999 2.831164 29.478908 1.275024
2003-02-11 08:21:50 51°21.681 2°57.07 -999 2.837793 29.55659 1.275024
2003-02-11 08:21:56 51°21.7 2°57.096 -999 2.835794 29.536004 1.275024
2003-02-11 08:22:00 51°21.713 2°57.114 -999 2.836846 29.545716 1.241315
2003-02-11 08:22:05 51°21.729 2°57.136 -999 2.835899 29.534843 1.207606
2003-02-11 08:22:11 51°21.747 2°57.162 -999 2.835899 29.534843 1.207606
2003-02-11 08:22:16 51°21.763 2°57.184 -999 2.836952 29.546135 1.241315
2003-02-11 08:22:20 51°21.775 2°57.202 -999 2.830533 29.471662 1.241315
2003-02-11 08:22:26 51°21.794 2°57.229 -999 2.833164 29.503434 1.173896
2003-02-11 08:22:32 51°21.813 2°57.255 -999 2.830954 29.477281 1.173896
2003-02-11 08:22:36 51°21.825 2°57.273 -999 2.834531 29.518349 1.207606
2003-02-11 08:22:41 51°21.84 2°57.296 -999 2.834531 29.518349 1.207606
2003-02-11 08:22:47 51°21.859 2°57.323 -999 2.833058 29.500649 1.173896
2003-02-11 08:22:50 51°21.868 2°57.337 -999 2.832322 29.490617 1.173896
2003-02-11 08:22:56 51°21.885 2°57.365 -999 2.831585 29.482951 1.173896
2003-02-11 08:23:00 51°21.897 2°57.384 -999 2.832322 29.489828 1.173896
2003-02-11 08:23:07 51°21.919 2°57.416 -999 2.830849 29.473709 1.173896
2003-02-11 08:23:12 51°21.934 2°57.44 -999 2.830849 29.473709 1.173896
2003-02-11 08:23:16 51°21.946 2°57.458 -999 2.826008 29.420522 1.173896
2003-02-11 08:23:19 51°21.955 2°57.472 -999 2.829902 29.465203 1.173896
2003-02-11 08:23:27 51°21.978 2°57.51 -999 2.822747 29.38388 1.173896
2003-02-11 08:23:31 51°21.99 2°57.53 -999 2.823273 29.391488 1.207606
2003-02-11 08:23:37 51°22.008 2°57.559 -999 2.82443 29.406343 1.207606
2003-02-11 08:23:40 51°22.017 2°57.573 -999 2.82443 29.406343 1.207606
2003-02-11 08:23:45 51°22.032 2°57.597 -999 2.8218 29.379299 1.173896
2003-02-11 08:23:50 51°22.047 2°57.621 -999 2.821168 29.375197 1.173896
2003-02-11 08:23:56 51°22.064 2°57.65 -999 2.815802 29.319892 1.308734
2003-02-11 08:23:59 51°22.073 2°57.665 -999 2.818117 29.3496 1.275024
2003-02-11 08:24:05 51°22.091 2°57.694 -999 2.818117 29.355099 1.308734
2003-02-11 08:24:12 51°22.111 2°57.728 -999 2.818117 29.355099 1.308734
2003-02-11 08:24:17 51°22.125 2°57.752 -999 2.817591 29.352986 1.342443
2003-02-11 08:24:22 51°22.14 2°57.776 -999 2.816749 29.344892 1.275024
2003-02-11 08:24:26 51°22.152 2°57.795 -999 2.813593 29.311789 1.342443
2003-02-11 08:24:30 51°22.163 2°57.815 -999 2.813803 29.315775 1.477281
2003-02-11 08:24:36 51°22.181 2°57.844 -999 2.812751 29.306832 1.477281
2003-02-11 08:24:41 51°22.196 2°57.869 -999 2.812751 29.306832 1.477281
2003-02-11 08:24:46 51°22.21 2°57.893 -999 2.806649 29.239114 1.443571
2003-02-11 08:24:51 51°22.225 2°57.917 -999 2.806228 29.236631 1.477281
2003-02-11 08:24:56 51°22.24 2°57.942 -999 2.803598 29.210344 1.477281
2003-02-11 08:25:01 51°22.255 2°57.966 -999 2.804755 29.226764 1.5447
2003-02-11 08:25:05 51°22.266 2°57.986 -999 2.800231 29.177161 1.5447
2003-02-11 08:25:11 51°22.283 2°58.015 -999 2.800231 29.177161 1.5447
2003-02-11 08:25:16 51°22.298 2°58.04 -999 2.797285 29.151148 1.51099
2003-02-11 08:25:21 51°22.313 2°58.064 -999 2.796969 29.148305 1.51099
2003-02-11 08:25:27 51°22.33 2°58.093 -999 2.794549 29.12364 1.51099
2003-02-11 08:25:30 51°22.339 2°58.108 -999 2.790551 29.082411 1.477281
2003-02-11 08:25:36 51°22.357 2°58.137 -999 2.785185 29.021584 1.376153
2003-02-11 08:25:41 51°22.372 2°58.161 -999 2.785185 29.021584 1.376153
2003-02-11 08:25:47 51°22.389 2°58.19 -999 2.786027 29.032025 1.443571
2003-02-11 08:25:50 51°22.398 2°58.205 -999 2.783818 29.010549 1.578409
2003-02-11 08:25:56 51°22.416 2°58.234 -999 2.78487 29.024184 1.5447
2003-02-11 08:26:01 51°22.43 2°58.259 -999 2.776979 28.937479 1.409862
2003-02-11 08:26:06 51°22.445 2°58.282 -999 2.781293 28.987 1.51099
2003-02-11 08:26:11 51°22.459 2°58.307 -999 2.781293 28.987 1.51099
2003-02-11 08:26:16 51°22.474 2°58.331 -999 2.778873 28.959995 1.51099
2003-02-11 08:26:22 51°22.491 2°58.36 -999 2.775191 28.918499 1.443571
2003-02-11 08:26:27 51°22.506 2°58.385 -999 2.778136 28.952317 1.5447
2003-02-11 08:26:31 51°22.517 2°58.404 -999 2.7774 28.94619 1.5447
2003-02-11 08:26:36 51°22.532 2°58.429 -999 2.77498 28.917635 1.51099
2003-02-11 08:26:40 51°22.544 2°58.448 -999 2.77498 28.917635 1.51099
2003-02-11 08:26:46 51°22.561 2°58.477 -999 2.773718 28.907794 1.51099
2003-02-11 08:26:52 51°22.579 2°58.506 -999 2.773718 28.907019 1.578409
2003-02-11 08:26:56 51°22.591 2°58.525 -999 2.766879 28.827752 1.5447
2003-02-11 08:26:59 51°22.599 2°58.541 -999 2.770456 28.868806 1.51099
2003-02-11 08:27:06 51°22.619 2°58.575 -999 2.76993 28.864316 1.5447
2003-02-11 08:27:09 51°22.627 2°58.591 -999 2.76993 28.864316 1.5447
2003-02-11 08:27:16 51°22.646 2°58.627 -999 2.766143 28.823166 1.443571
2003-02-11 08:27:21 51°22.659 2°58.653 -999 2.768247 28.848865 1.477281
2003-02-11 08:27:27 51°22.676 2°58.683 -999 2.768142 28.847657 1.51099
2003-02-11 08:27:31 51°22.687 2°58.704 -999 2.762566 28.781345 1.51099
2003-02-11 08:27:41 51°22.714 2°58.754 -999 2.765932 28.819205 1.5447
2003-02-11 08:27:47 51°22.731 2°58.785 -999 2.763197 28.788588 1.5447
2003-02-11 08:27:50 51°22.739 2°58.8 -999 2.766353 28.821716 1.5447
2003-02-11 08:27:56 51°22.756 2°58.831 -999 2.764459 28.803075 1.578409
2003-02-11 08:28:00 51°22.767 2°58.851 -999 2.763723 28.796169 1.51099
2003-02-11 08:28:07 51°22.786 2°58.887 -999 2.765196 28.815391 1.578409
2003-02-11 08:28:10 51°22.794 2°58.902 -999 2.765196 28.815391 1.578409
2003-02-11 08:28:16 51°22.811 2°58.933 -999 2.76204 28.777625 1.5447
2003-02-11 08:28:21 51°22.825 2°58.958 -999 2.764565 28.807374 1.477281
2003-02-11 08:28:25 51°22.836 2°58.978 -999 2.761514 28.773904 1.51099
2003-02-11 08:28:32 51°22.855 2°59.014 -999 2.764249 28.805297 1.5447
2003-02-11 08:28:37 51°22.869 2°59.04 -999 2.762566 28.78675 1.51099
2003-02-11 08:28:40 51°22.877 2°59.056 -999 2.762566 28.78675 1.51099
2003-02-11 08:28:47 51°22.896 2°59.091 -999 2.76204 28.780713 1.477281
2003-02-11 08:28:51 51°22.907 2°59.112 -999 2.762461 28.786315 1.51099
2003-02-11 08:28:56 51°22.921 2°59.137 -999 2.761409 28.773469 1.51099
2003-02-11 08:29:00 51°22.932 2°59.158 -999 2.762776 28.789165 1.51099
2003-02-11 08:29:06 51°22.949 2°59.188 -999 2.764354 28.805731 1.477281
2003-02-11 08:29:12 51°22.965 2°59.219 -999 2.764354 28.805731 1.477281
2003-02-11 08:29:16 51°22.976 2°59.239 -999 2.763723 28.799259 1.51099
2003-02-11 08:29:20 51°22.987 2°59.26 -999 2.764249 28.805297 1.443571
2003-02-11 08:29:27 51°23.007 2°59.295 -999 2.759936 28.756566 1.477281
2003-02-11 08:29:31 51°23.017 2°59.316 -999 2.762145 28.78192 1.477281
2003-02-11 08:29:35 51°23.028 2°59.337 -999 2.756359 28.717064 1.409862
2003-02-11 08:29:42 51°23.048 2°59.372 -999 2.756359 28.717064 1.409862
2003-02-11 08:29:45 51°23.056 2°59.387 -999 2.76225 28.786217 1.51099
2003-02-11 08:29:51 51°23.073 2°59.418 -999 2.759936 28.759653 1.477281
2003-02-11 08:29:56 51°23.086 2°59.444 -999 2.763723 28.800032 1.5447
2003-02-11 08:30:00 51°23.097 2°59.464 -999 2.759936 28.755795 1.443571
2003-02-11 08:30:07 51°23.117 2°59.5 -999 2.761935 28.778733 1.578409
2003-02-11 08:30:12 51°23.131 2°59.525 -999 2.761935 28.778733 1.578409
2003-02-11 08:30:16 51°23.142 2°59.546 -999 2.75983 28.75613 1.477281
2003-02-11 08:30:20 51°23.152 2°59.566 -999 2.763828 28.802012 1.443571
2003-02-11 08:30:27 51°23.171 2°59.6 -999 2.763933 28.80322 1.409862
2003-02-11 08:30:31 51°23.181 2°59.619 -999 2.763723 28.798487 1.443571
2003-02-11 08:30:36 51°23.192 2°59.642 -999 2.763723 28.800805 1.51099
2003-02-11 08:30:42 51°23.207 2°59.668 -999 2.763723 28.800805 1.51099
2003-02-11 08:30:46 51°23.216 2°59.685 -999 2.764986 28.813749 1.376153
2003-02-11 08:30:51 51°23.228 2°59.706 -999 2.76467 28.808581 1.409862
2003-02-11 08:30:57 51°23.243 2°59.728 -999 2.764986 28.810658 1.409862
2003-02-11 08:31:00 51°23.251 2°59.739 -999 2.76467 28.807035 1.342443
2003-02-11 08:31:05 51°23.264 2°59.757 -999 2.766984 28.834373 1.376153
2003-02-11 08:31:12 51°23.282 2°59.78 -999 2.766984 28.834373 1.376153
2003-02-11 08:31:16 51°23.293 2°59.792 -999 2.765301 28.81428 1.443571
2003-02-11 08:31:22 51°23.309 2°59.811 -999 2.764144 28.800999 1.376153
2003-02-11 08:31:27 51°23.322 2°59.827 -999 2.766774 28.833505 1.443571
2003-02-11 08:31:31 51°23.333 2°59.839 -999 2.765301 28.813507 1.308734
2003-02-11 08:31:36 51°23.344 2°59.856 -999 2.766564 28.830316 1.308734
2003-02-11 08:31:40 51°23.352 2°59.87 -999 2.766564 28.830316 1.308734
2003-02-11 08:31:46 51°23.361 2°59.893 -999 2.764459 28.806166 1.275024
2003-02-11 08:31:51 51°23.366 2°59.913 -999 2.765617 28.820222 1.275024
2003-02-11 08:31:56 51°23.369 2°59.932 -999 2.766143 28.826259 1.275024
2003-02-11 08:32:01 51°23.37 2°59.951 -999 2.765617 28.819448 1.308734
2003-02-11 08:32:04 51°23.37 2°59.961 -999 2.765196 28.8123 1.241315
2003-02-11 08:32:08 51°23.37 2°59.974 -999 2.765196 28.8123 1.241315
2003-02-11 08:32:16 51°23.367 2°59.998 8.30351 2.766564 28.821811 1.241315
2003-02-11 08:32:20 51°23.366 3°0.009 8.599216 2.766669 28.812201 1.275024
2003-02-11 08:32:26 51°23.362 3°0.023 7.850698 2.762039 28.733692 1.275024
2003-02-11 08:32:31 51°23.359 3°0.033 7.964297 2.757515 28.655773 1.308734
2003-02-11 08:32:37 51°23.355 3°0.044 7.929004 2.761303 28.707571 1.241315
2003-02-11 08:32:41 51°23.352 3°0.051 7.929004 2.761303 28.707571 1.241315
2003-02-11 08:32:47 51°23.347 3°0.059 7.849437 2.763197 28.743103 2.08405
2003-02-11 08:32:50 51°23.344 3°0.063 8.047444 2.764985 28.783635 1.780665
2003-02-11 08:32:56 51°23.34 3°0.069 7.406339 2.767826 28.830113 1.51099
2003-02-11 08:33:01 51°23.335 3°0.072 7.916363 2.767931 28.838279 1.342443
2003-02-11 08:33:06 51°23.331 3°0.075 7.440409 2.767826 28.842487 1.275024
2003-02-11 08:33:11 51°23.328 3°0.077 7.440409 2.767826 28.842487 1.275024
2003-02-11 08:33:16 51°23.324 3°0.078 7.958586 2.767195 28.838336 1.275024
2003-02-11 08:33:21 51°23.32 3°0.078 8.472857 2.767616 28.842393 1.308734
2003-02-11 08:33:24 51°23.318 3°0.077 7.878523 2.766458 28.831429 1.241315
2003-02-11 08:33:31 51°23.314 3°0.075 7.441238 2.766458 28.832976 1.409862
2003-02-11 08:33:36 51°23.311 3°0.072 8.112232 2.765196 28.82235 1.275024
2003-02-11 08:33:42 51°23.308 3°0.068 8.112232 2.765196 28.82235 1.275024
2003-02-11 08:33:44 51°23.307 3°0.067 7.601043 2.764565 28.81897 1.409862
2003-02-11 08:33:52 51°23.303 3°0.061 8.23395 2.763723 28.809307 1.443571
2003-02-11 08:33:57 51°23.3 3°0.057 8.628828 2.763092 28.80206 1.409862
2003-02-11 08:34:01 51°23.299 3°0.054 7.921885 2.762461 28.795586 1.275024
2003-02-11 08:34:05 51°23.297 3°0.051 7.918155 2.763092 28.805152 1.376153
2003-02-11 08:34:09 51°23.295 3°0.047 7.918155 2.763092 28.805152 1.376153
2003-02-11 08:34:16 51°23.293 3°0.042 9.139185 2.763197 28.807907 1.443571
2003-02-11 08:34:20 51°23.291 3°0.039 8.709638 2.763092 28.805152 1.409862
2003-02-11 08:34:26 51°23.288 3°0.035 7.681599 2.763302 28.806795 1.409862
2003-02-11 08:34:31 51°23.286 3°0.032 7.524042 2.763408 28.808003 1.342443
2003-02-11 08:34:36 51°23.284 3°0.028 9.102008 2.762145 28.795053 1.342443
2003-02-11 08:34:42 51°23.282 3°0.025 9.102008 2.762145 28.795053 1.342443
2003-02-11 08:34:46 51°23.28 3°0.023 8.024866 2.763197 28.80636 1.443571
2003-02-11 08:34:50 51°23.279 3°0.021 7.68821 2.763513 28.810757 1.308734
2003-02-11 08:34:56 51°23.277 3°0.018 8.446825 2.761409 28.785825 1.342443
2003-02-11 08:35:01 51°23.275 3°0.015 8.286994 2.761409 28.786598 1.409862
2003-02-11 08:35:06 51°23.273 3°0.013 8.727338 2.762461 28.796358 1.275024
2003-02-11 08:35:12 51°23.271 3°0.011 8.727338 2.762461 28.796358 1.275024
2003-02-11 08:35:16 51°23.27 3°0.01 7.74122 2.762776 28.799209 1.342443
2003-02-11 08:35:20 51°23.269 3°0.008 8.375496 2.763513 28.806118 1.342443
2003-02-11 08:35:25 51°23.267 3°0.007 8.297443 2.762881 28.796553 1.308734
2003-02-11 08:35:32 51°23.265 3°0.005 7.865242 2.761724 28.780951 1.308734
2003-02-11 08:35:36 51°23.264 3°0.003 7.591892 2.763302 28.79752 1.308734
2003-02-11 08:35:40 51°23.263 3°0.003 7.591892 2.763302 28.79752 1.308734
2003-02-11 08:35:46 51°23.262 3°0.001 7.601627 2.763197 28.793995 1.308734
2003-02-11 08:35:51 51°23.26 2°60 7.824753 2.760882 28.764345 1.275024
2003-02-11 08:35:56 51°23.259 2°59.999 7.545578 2.76467 28.807035 1.376153
2003-02-11 08:36:00 51°23.258 2°59.998 7.856371 2.760672 28.758845 1.342443
2003-02-11 08:36:07 51°23.257 2°59.996 8.30688 2.764775 28.803607 1.308734
2003-02-11 08:36:10 51°23.256 2°59.996 8.30688 2.764775 28.803607 1.308734
2003-02-11 08:36:17 51°23.255 2°59.994 7.783461 2.764249 28.797571 1.376153
2003-02-11 08:36:20 51°23.254 2°59.993 7.772442 2.763723 28.791535 1.409862
2003-02-11 08:36:25 51°23.254 2°59.992 8.559042 2.763933 28.793177 1.409862
2003-02-11 08:36:32 51°23.253 2°59.99 7.687238 2.764775 28.802062 1.342443
2003-02-11 08:36:36 51°23.252 2°59.989 7.488505 2.76488 28.804814 1.308734
2003-02-11 08:36:39 51°23.252 2°59.988 7.488505 2.76488 28.804814 1.308734
2003-02-11 08:36:47 51°23.251 2°59.985 7.644933 2.761829 28.771351 1.409862
2003-02-11 08:36:51 51°23.25 2°59.984 7.841873 2.764565 28.805055 1.308734
2003-02-11 08:36:56 51°23.25 2°59.982 8.119233 2.764144 28.802544 1.275024
2003-02-11 08:37:00 51°23.25 2°59.981 7.602163 2.76467 28.812446 1.308734
2003-02-11 08:37:07 51°23.249 2°59.979 7.722227 2.76446 28.81235 1.275024
2003-02-11 08:37:12 51°23.249 2°59.977 7.722227 2.76446 28.81235 1.275024
2003-02-11 08:37:15 51°23.249 2°59.976 7.524383 2.763828 28.807422 1.241315
2003-02-11 08:37:22 51°23.249 2°59.973 7.920771 2.763828 28.808969 1.308734
2003-02-11 08:37:26 51°23.249 2°59.971 7.922078 2.763618 28.808099 1.308734
2003-02-11 08:37:31 51°23.249 2°59.969 7.880462 2.763408 28.808776 1.308734
2003-02-11 08:37:36 51°23.249 2°59.967 8.198129 2.75962 28.765292 1.241315
2003-02-11 08:37:41 51°23.249 2°59.965 8.198129 2.75962 28.765292 1.241315
2003-02-11 08:37:47 51°23.249 2°59.963 7.726308 2.763197 28.805587 1.308734
2003-02-11 08:37:52 51°23.249 2°59.961 7.686265 2.76204 28.793073 1.275024
2003-02-11 08:37:56 51°23.249 2°59.959 7.842794 2.762671 28.797228 1.342443
2003-02-11 08:38:01 51°23.249 2°59.957 7.363263 2.762882 28.800417 1.308734
2003-02-11 08:38:05 51°23.25 2°59.955 7.845413 2.761935 28.789546 1.275024
2003-02-11 08:38:10 51°23.25 2°59.953 7.845413 2.761935 28.789546 1.275024
2003-02-11 08:38:17 51°23.25 2°59.95 7.168616 2.764249 28.815347 1.241315
2003-02-11 08:38:19 51°23.251 2°59.949 7.968895 2.762671 28.79491 1.308734
2003-02-11 08:38:25 51°23.251 2°59.946 7.808162 2.764565 28.81897 1.342443
2003-02-11 08:38:31 51°23.252 2°59.943 7.731554 2.761935 28.788774 1.275024
2003-02-11 08:38:36 51°23.253 2°59.941 8.015629 2.76446 28.818536 1.275024
2003-02-11 08:38:40 51°23.253 2°59.939 8.015629 2.76446 28.818536 1.275024
2003-02-11 08:38:47 51°23.254 2°59.936 8.368426 2.761935 28.787229 1.275024
2003-02-11 08:38:50 51°23.254 2°59.934 7.457778 2.76446 28.816216 1.275024
2003-02-11 08:38:56 51°23.255 2°59.931 7.457632 2.76467 28.816311 1.342443
2003-02-11 08:39:01 51°23.256 2°59.929 7.657093 2.760672 28.771192 1.308734
2003-02-11 08:39:06 51°23.257 2°59.927 7.661858 2.763934 28.805538 1.241315
2003-02-11 08:39:12 51°23.258 2°59.924 7.661858 2.763934 28.805538 1.241315
2003-02-11 08:39:16 51°23.258 2°59.922 6.744589 2.766248 28.830561 1.241315
2003-02-11 08:39:20 51°23.259 2°59.92 7.425817 2.76488 28.813315 1.275024
2003-02-11 08:39:25 51°23.259 2°59.917 7.143079 2.766564 28.83341 1.275024
2003-02-11 08:39:32 51°23.26 2°59.914 7.540317 2.763618 28.797279 1.241315
2003-02-11 08:39:36 51°23.261 2°59.912 7.65753 2.76467 28.810127 1.376153
2003-02-11 08:39:39 51°23.261 2°59.911 7.65753 2.76467 28.810127 1.376153
2003-02-11 08:39:47 51°23.262 2°59.908 7.191204 2.765932 28.821525 1.308734
2003-02-11 08:39:52 51°23.263 2°59.906 7.296539 2.766038 28.820413 1.275024
2003-02-11 08:39:56 51°23.263 2°59.904 7.539342 2.766669 28.826884 1.308734
2003-02-11 08:40:00 51°23.264 2°59.903 6.775907 2.766353 28.824035 1.409862
2003-02-11 08:40:07 51°23.264 2°59.9 6.820564 2.766143 28.82162 1.308734
2003-02-11 08:40:12 51°23.265 2°59.898 6.820564 2.766143 28.82162 1.308734
2003-02-11 08:40:16 51°23.265 2°59.897 7.579915 2.764565 28.806601 1.376153
2003-02-11 08:40:19 51°23.265 2°59.896 7.618856 2.765091 28.814184 1.376153
2003-02-11 08:40:27 51°23.266 2°59.894 7.537637 2.764249 28.804524 1.409862
2003-02-11 08:40:31 51°23.266 2°59.893 6.934186 2.763828 28.800467 1.443571
2003-02-11 08:40:35 51°23.266 2°59.892 7.458022 2.766774 28.832732 1.342443
2003-02-11 08:40:39 51°23.266 2°59.891 7.458022 2.766774 28.832732 1.342443
2003-02-11 08:40:46 51°23.267 2°59.889 7.241788 2.767195 28.837562 1.409862
2003-02-11 08:40:51 51°23.267 2°59.889 7.257205 2.766248 28.82592 1.409862
2003-02-11 08:40:57 51°23.267 2°59.887 7.974509 2.763092 28.79047 1.342443
2003-02-11 08:41:00 51°23.267 2°59.887 7.052123 2.764986 28.812203 1.376153
2003-02-11 08:41:05 51°23.267 2°59.886 7.573341 2.765827 28.824183 1.477281
2003-02-11 08:41:09 51°23.268 2°59.885 7.573341 2.765827 28.824183 1.477281
2003-02-11 08:41:16 51°23.268 2°59.884 7.093005 2.765722 28.822976 1.477281
2003-02-11 08:41:20 51°23.268 2°59.884 7.010231 2.765091 28.81573 1.376153
2003-02-11 08:41:26 51°23.268 2°59.883 7.412247 2.766774 28.835052 1.342443
2003-02-11 08:41:30 51°23.268 2°59.883 6.649603 2.76467 28.8109 1.376153
2003-02-11 08:41:36 51°23.269 2°59.882 7.051632 2.765827 28.82573 1.342443
2003-02-11 08:41:42 51°23.269 2°59.882 7.051632 2.765827 28.82573 1.342443
2003-02-11 08:41:47 51°23.269 2°59.881 7.451778 2.766038 28.828145 1.443571
2003-02-11 08:41:50 51°23.269 2°59.881 7.214665 2.764039 28.805973 1.376153
2003-02-11 08:41:56 51°23.269 2°59.88 7.252214 2.76446 28.810803 1.376153
2003-02-11 08:42:01 51°23.269 2°59.88 6.848989 2.764775 28.814426 1.308734
2003-02-11 08:42:05 51°23.27 2°59.88 7.571783 2.765091 28.818049 1.308734
2003-02-11 08:42:12 51°23.27 2°59.88 7.571783 2.765091 28.818049 1.308734
2003-02-11 08:42:16 51°23.27 2°59.88 7.80724 2.763197 28.797858 1.342443
2003-02-11 08:42:21 51°23.27 2°59.88 7.527404 2.76446 28.811577 1.443571
2003-02-11 08:42:27 51°23.27 2°59.88 7.006841 2.762461 28.788632 1.342443
2003-02-11 08:42:31 51°23.27 2°59.88 7.29023 2.762566 28.789839 1.443571
2003-02-11 08:42:37 51°23.27 2°59.88 7.172782 2.76204 28.783802 1.342443
2003-02-11 08:42:39 51°23.27 2°59.88 7.172782 2.76204 28.783802 1.342443
2003-02-11 08:42:45 51°23.27 2°59.881 6.890543 2.764565 28.815104 1.342443
2003-02-11 08:42:51 51°23.27 2°59.881 7.133078 2.763934 28.807857 1.443571
2003-02-11 08:42:56 51°23.27 2°59.882 7.214861 2.763723 28.806215 1.376153
2003-02-11 08:43:00 51°23.27 2°59.882 7.016617 2.762671 28.794137 1.342443
2003-02-11 08:43:06 51°23.271 2°59.882 6.852978 2.762776 28.793027 1.443571
2003-02-11 08:43:11 51°23.271 2°59.883 6.852978 2.762776 28.793027 1.443571
2003-02-11 08:43:16 51°23.271 2°59.883 6.893841 2.761935 28.782594 1.376153
2003-02-11 08:43:21 51°23.271 2°59.884 6.934284 2.764354 28.810369 1.443571
2003-02-11 08:43:25 51°23.271 2°59.885 7.651305 2.763618 28.801143 1.409862
2003-02-11 08:43:32 51°23.271 2°59.886 6.810463 2.763723 28.801577 1.342443
2003-02-11 08:43:36 51°23.271 2°59.886 6.9719 2.763618 28.80037 1.342443
2003-02-11 08:43:42 51°23.271 2°59.887 6.9719 2.763618 28.80037 1.342443
2003-02-11 08:43:47 51°23.271 2°59.888 7.130773 2.765617 28.822541 1.376153
2003-02-11 08:43:51 51°23.271 2°59.889 7.048342 2.762566 28.78675 1.342443
2003-02-11 08:43:56 51°23.271 2°59.89 6.765009 2.764144 28.806408 1.376153
2003-02-11 08:44:00 51°23.272 2°59.89 7.090405 2.765091 28.817276 1.376153
2003-02-11 08:44:07 51°23.272 2°59.892 7.329689 2.765301 28.822011 1.443571
2003-02-11 08:44:12 51°23.272 2°59.893 7.329689 2.765301 28.822011 1.443571
2003-02-11 08:44:16 51°23.272 2°59.894 6.686646 2.76467 28.814765 1.342443
2003-02-11 08:44:19 51°23.272 2°59.895 6.929366 2.76446 28.813123 1.376153
2003-02-11 08:44:27 51°23.272 2°59.897 6.969049 2.765091 28.820369 1.376153
2003-02-11 08:44:31 51°23.272 2°59.898 6.644069 2.761198 28.776458 1.376153
2003-02-11 08:44:36 51°23.273 2°59.899 6.968213 2.763513 28.803799 1.342443
2003-02-11 08:44:39 51°23.273 2°59.9 6.968213 2.763513 28.803799 1.342443
2003-02-11 08:44:46 51°23.273 2°59.902 7.249179 2.764565 28.81433 1.342443
2003-02-11 08:44:48 51°23.273 2°59.903 7.010034 2.765406 28.823993 1.376153
2003-02-11 08:44:56 51°23.273 2°59.905 7.251724 2.76204 28.786891 1.409862
2003-02-11 08:45:02 51°23.274 2°59.907 6.928038 2.760567 28.769985 1.376153
2003-02-11 08:45:06 51°23.274 2°59.908 6.929808 2.764039 28.809065 1.376153
2003-02-11 08:45:12 51°23.274 2°59.911 6.929808 2.764039 28.809065 1.376153
2003-02-11 08:45:16 51°23.274 2°59.912 7.09276 2.764144 28.8095 1.308734
2003-02-11 08:45:19 51°23.274 2°59.913 7.169743 2.763407 28.798727 1.477281
2003-02-11 08:45:25 51°23.274 2°59.915 7.049324 2.765301 28.823558 1.51099
2003-02-11 08:45:31 51°23.275 2°59.918 7.008168 2.765827 28.828824 1.376153
2003-02-11 08:45:36 51°23.275 2°59.919 6.967132 2.766038 28.829692 1.409862
2003-02-11 08:45:40 51°23.275 2°59.921 6.967132 2.766038 28.829692 1.409862
2003-02-11 08:45:47 51°23.276 2°59.924 7.047655 2.761303 28.776121 1.409862
2003-02-11 08:45:50 51°23.276 2°59.925 6.849334 2.765827 28.824957 1.376153
2003-02-11 08:45:56 51°23.277 2°59.928 7.17141 2.763828 28.804331 1.409862
2003-02-11 08:46:00 51°23.277 2°59.929 6.927496 2.764354 28.811142 1.376153
2003-02-11 08:46:05 51°23.277 2°59.931 7.009592 2.765196 28.820804 1.409862
2003-02-11 08:46:12 51°23.278 2°59.935 7.009592 2.765196 28.820804 1.409862
2003-02-11 08:46:16 51°23.279 2°59.936 7.127144 2.763302 28.800611 1.275024
2003-02-11 08:46:26 51°23.28 2°59.942 7.288224 2.765722 28.826069 1.342443
2003-02-11 08:46:32 51°23.28 2°59.944 6.680721 2.76446 28.81235 1.342443
2003-02-11 08:46:36 51°23.281 2°59.946 7.366145 2.76446 28.813896 1.376153
2003-02-11 08:46:39 51°23.281 2°59.948 7.366145 2.76446 28.813896 1.376153
2003-02-11 08:46:47 51°23.282 2°59.952 6.681461 2.76204 28.786119 1.376153
2003-02-11 08:46:50 51°23.283 2°59.954 7.04024 2.764565 28.815877 1.409862
2003-02-11 08:46:56 51°23.283 2°59.957 6.797204 2.765196 28.823897 1.308734
2003-02-11 08:47:00 51°23.284 2°59.959 6.638337 2.761409 28.78119 1.443571
2003-02-11 08:47:05 51°23.285 2°59.962 7.081573 2.764986 28.823029 1.409862
2003-02-11 08:47:12 51°23.286 2°59.966 7.081573 2.764986 28.823029 1.409862
2003-02-11 08:47:16 51°23.286 2°59.969 7.683106 2.761829 28.786793 1.376153
2003-02-11 08:47:21 51°23.287 2°59.972 7.89059 2.763092 28.80206 1.376153
2003-02-11 08:47:27 51°23.288 2°59.976 7.32089 2.762461 28.796358 1.376153
2003-02-11 08:47:32 51°23.289 2°59.979 7.124104 2.763513 28.809211 1.409862
2003-02-11 08:47:36 51°23.29 2°59.982 7.284458 2.763828 28.813608 1.443571
2003-02-11 08:47:40 51°23.291 2°59.984 7.284458 2.763828 28.813608 1.443571
2003-02-11 08:47:46 51°23.292 2°59.989 7.013719 2.763197 28.80636 1.409862
2003-02-11 08:47:51 51°23.293 2°59.992 7.010771 2.764249 28.816893 1.443571
2003-02-11 08:47:56 51°23.294 2°59.996 6.931038 2.764249 28.81844 1.409862
2003-02-11 08:48:01 51°23.295 2°59.999 7.42611 2.762671 28.80032 1.409862
2003-02-11 08:48:05 51°23.296 3°0.002 7.401457 2.764249 28.81612 1.376153
2003-02-11 08:48:10 51°23.297 3°0.005 7.401457 2.764249 28.81612 1.376153
2003-02-11 08:48:16 51°23.298 3°0.009 7.10944 2.761724 28.784813 1.308734
2003-02-11 08:48:20 51°23.299 3°0.012 7.110077 2.765406 28.823993 1.342443
2003-02-11 08:48:27 51°23.3 3°0.016 7.497769 2.764986 28.818388 1.342443
2003-02-11 08:48:31 51°23.301 3°0.019 7.126703 2.763618 28.801143 1.308734
2003-02-11 08:48:36 51°23.302 3°0.022 7.477972 2.76709 28.83326 1.241315
2003-02-11 08:48:42 51°23.303 3°0.026 7.477972 2.76709 28.83326 1.241315
2003-02-11 08:48:47 51°23.304 3°0.03 7.230088 2.775717 28.918334 1.308734
2003-02-11 08:48:51 51°23.304 3°0.032 6.693262 2.781398 28.969565 1.308734
2003-02-11 08:48:56 51°23.305 3°0.035 7.464169 2.781292 28.963701 1.376153
2003-02-11 08:49:02 51°23.306 3°0.039 7.346112 2.781503 28.96922 1.342443
2003-02-11 08:49:07 51°23.307 3°0.042 6.981633 2.775927 28.909898 1.308734
2003-02-11 08:49:11 51°23.307 3°0.044 6.981633 2.775927 28.909898 1.308734
2003-02-11 08:49:16 51°23.308 3°0.047 7.222646 2.773402 28.886351 1.308734
2003-02-11 08:49:20 51°23.308 3°0.049 6.981682 2.774454 28.902295 1.308734
2003-02-11 08:49:27 51°23.309 3°0.053 7.264105 2.768878 28.845278 1.342443
2003-02-11 08:49:32 51°23.31 3°0.055 7.183855 2.770141 28.862861 1.342443
2003-02-11 08:49:37 51°23.31 3°0.058 7.541632 2.767405 28.833016 1.342443
2003-02-11 08:49:42 51°23.31 3°0.06 7.541632 2.767405 28.833016 1.342443
2003-02-11 08:49:47 51°23.311 3°0.063 7.859231 2.769404 28.857504 1.477281
2003-02-11 08:49:52 51°23.311 3°0.065 7.303141 2.768668 28.849826 1.342443
2003-02-11 08:49:56 51°23.312 3°0.066 7.501572 2.768457 28.848184 1.376153
2003-02-11 08:49:59 51°23.312 3°0.068 7.46212 2.766038 28.81964 1.342443
2003-02-11 08:50:07 51°23.313 3°0.071 7.103847 2.765827 28.818771 1.275024
2003-02-11 08:50:12 51°23.313 3°0.072 7.103847 2.765827 28.818771 1.275024
2003-02-11 08:50:16 51°23.313 3°0.074 7.106251 2.765827 28.818771 1.342443
2003-02-11 08:50:20 51°23.314 3°0.075 7.025311 2.7673 28.835675 1.409862
2003-02-11 08:50:27 51°23.314 3°0.077 7.866309 2.765196 28.810754 1.376153
2003-02-11 08:50:32 51°23.315 3°0.078 7.147884 2.766669 28.828431 1.443571
2003-02-11 08:50:36 51°23.315 3°0.08 7.546553 2.767616 28.840072 1.308734
2003-02-11 08:50:42 51°23.315 3°0.081 7.546553 2.767616 28.840072 1.308734
2003-02-11 08:50:46 51°23.315 3°0.082 7.222744 2.76488 28.806359 1.308734
2003-02-11 08:50:56 51°23.316 3°0.083 7.261267 2.768457 28.845863 1.409862
2003-02-11 08:51:01 51°23.316 3°0.084 7.146756 2.767195 28.831375 1.308734
2003-02-11 08:51:07 51°23.316 3°0.085 7.184835 2.768878 28.850693 1.275024
2003-02-11 08:51:12 51°23.316 3°0.086 7.184835 2.768878 28.850693 1.275024
2003-02-11 08:51:16 51°23.317 3°0.086 6.904668 2.769825 28.861561 1.342443
2003-02-11 08:51:21 51°23.317 3°0.086 7.025557 2.765827 28.817998 1.275024
2003-02-11 08:51:26 51°23.317 3°0.087 6.986695 2.765722 28.816791 1.241315
2003-02-11 08:51:32 51°23.317 3°0.087 6.784042 2.767721 28.840505 1.342443
2003-02-11 08:51:36 51°23.317 3°0.088 7.669006 2.768352 28.847751 1.275024
2003-02-11 08:51:42 51°23.318 3°0.088 7.669006 2.768352 28.847751 1.275024
2003-02-11 08:51:47 51°23.318 3°0.088 7.227542 2.766774 28.828091 1.342443
2003-02-11 08:51:50 51°23.318 3°0.088 7.02369 2.76751 28.83577 1.376153
2003-02-11 08:51:56 51°23.318 3°0.089 7.143374 2.766984 28.82896 1.308734
2003-02-11 08:52:01 51°23.318 3°0.089 7.663074 2.768562 28.845523 1.409862
2003-02-11 08:52:05 51°23.318 3°0.089 7.901685 2.765511 28.812058 1.308734
2003-02-11 08:52:12 51°23.318 3°0.089 7.901685 2.765511 28.812058 1.308734
2003-02-11 08:52:16 51°23.318 3°0.089 7.543045 2.768878 28.851467 1.443571
2003-02-11 08:52:20 51°23.318 3°0.089 7.623819 2.768352 28.844656 1.443571
2003-02-11 08:52:27 51°23.318 3°0.089 8.021578 2.767195 28.832148 1.342443
2003-02-11 08:52:32 51°23.318 3°0.089 7.500938 2.765196 28.809209 1.342443
2003-02-11 08:52:36 51°23.318 3°0.089 7.740929 2.768563 28.848618 1.342443
2003-02-11 08:52:41 51°23.318 3°0.089 7.740929 2.768563 28.848618 1.342443
2003-02-11 08:52:45 51°23.318 3°0.089 7.544507 2.768457 28.847411 1.342443
2003-02-11 08:52:48 51°23.318 3°0.089 8.21838 2.766143 28.820847 1.342443
2003-02-11 08:52:56 51°23.317 3°0.089 7.462754 2.768036 28.842581 1.376153
2003-02-11 08:53:02 51°23.317 3°0.09 7.462413 2.766669 28.829204 1.409862
2003-02-11 08:53:07 51°23.317 3°0.089 7.381874 2.764985 28.808339 1.409862
2003-02-11 08:53:10 51°23.317 3°0.089 7.381874 2.764985 28.808339 1.409862
2003-02-11 08:53:16 51°23.317 3°0.089 8.056482 2.763723 28.793852 1.342443
2003-02-11 08:53:21 51°23.316 3°0.089 7.895629 2.768773 28.851033 1.443571
2003-02-11 08:53:25 51°23.316 3°0.089 8.603386 2.763933 28.796266 1.409862
2003-02-11 08:53:32 51°23.316 3°0.089 8.129952 2.768247 28.844996 1.443571
2003-02-11 08:53:36 51°23.315 3°0.089 7.576506 2.766038 28.820413 1.376153
2003-02-11 08:53:42 51°23.315 3°0.089 7.576506 2.766038 28.820413 1.376153
2003-02-11 08:53:47 51°23.315 3°0.089 7.69448 2.765406 28.813942 1.376153
2003-02-11 08:53:52 51°23.314 3°0.09 7.690203 2.764144 28.800999 1.376153
2003-02-11 08:53:56 51°23.314 3°0.09 7.453144 2.765617 28.818675 1.376153
2003-02-11 08:54:00 51°23.314 3°0.09 7.571393 2.763407 28.794864 1.376153
2003-02-11 08:54:07 51°23.313 3°0.09 7.330911 2.764039 28.803654 1.308734
2003-02-11 08:54:12 51°23.312 3°0.09 7.330911 2.764039 28.803654 1.308734
2003-02-11 08:54:16 51°23.312 3°0.091 7.448118 2.76225 28.784672 1.409862
2003-02-11 08:54:19 51°23.312 3°0.091 7.570371 2.765301 28.820465 1.275024
2003-02-11 08:54:27 51°23.311 3°0.092 8.044688 2.763407 28.7995 1.376153
2003-02-11 08:54:31 51°23.31 3°0.092 8.642287 2.763618 28.802688 1.308734
2003-02-11 08:54:36 51°23.31 3°0.092 7.613406 2.763828 28.806649 1.376153
2003-02-11 08:54:42 51°23.309 3°0.093 7.613406 2.763828 28.806649 1.376153
2003-02-11 08:54:47 51°23.309 3°0.093 8.04609 2.76225 28.788534 1.409862
2003-02-11 08:54:50 51°23.309 3°0.093 7.847886 2.760883 28.77438 1.376153
2003-02-11 08:54:56 51°23.308 3°0.094 7.408439 2.760988 28.775587 1.376153
2003-02-11 08:55:01 51°23.307 3°0.095 7.651986 2.76225 28.789307 1.342443
2003-02-11 08:55:05 51°23.307 3°0.095 7.610924 2.762145 28.786554 1.342443
2003-02-11 08:55:09 51°23.307 3°0.095 7.610924 2.762145 28.786554 1.342443
2003-02-11 08:55:16 51°23.306 3°0.096 7.971315 2.75941 28.75593 1.342443
2003-02-11 08:55:22 51°23.305 3°0.096 8.011567 2.761724 28.781724 1.443571
2003-02-11 08:55:25 51°23.304 3°0.097 7.213734 2.764249 28.810707 1.342443
2003-02-11 08:55:31 51°23.304 3°0.097 7.814323 2.758989 28.751101 1.376153
2003-02-11 08:55:36 51°23.303 3°0.097 7.700653 2.75962 28.758345 1.308734
2003-02-11 08:55:42 51°23.302 3°0.097 7.700653 2.75962 28.758345 1.308734
2003-02-11 08:55:45 51°23.302 3°0.097 7.81345 2.763934 28.804765 1.376153
2003-02-11 08:55:49 51°23.301 3°0.098 7.016077 2.759515 28.75328 1.275024
2003-02-11 08:55:56 51°23.301 3°0.097 7.976251 2.760777 28.766996 1.409862
2003-02-11 08:56:01 51°23.3 3°0.097 7.457047 2.763092 28.79356 1.376153